UAE88F OMDB-CYUL
Flight info
| Callsign | UAE88F |
|---|---|
| Flight time | 12h 56m |
| Altitude | 34000 |
| Route | ANVIX DCT MUSEN M318 MUXIT DCT SITER T556 NOSGI M430 KSA T503 TAMRO N318 NEVOL/N0491F360 N318 ITUNO G662 BUSRA L513 DAM/N0487F350 L513 LEBOR/N0489F360 UR655 BALMA M601 KOBER DCT RUDER M13 BAPAX L620 VESAR UB545 MUT UL619 OSVEL UB545 KFK UM855 SISPI UT615 SULTA UW714 YAA UA16 FENER UT264 TUDBU Q26 ETUBA T226 NAVOD DCT PADGU DCT PARAK/N0480F380 DCT SOPRO DCT BAVRI DCT ANELA L604 RELBI L602 RKN L980 TENLI L602 NALAX L46 GETNO DCT SLG DCT RESNO/M084F380 DCT 55N020W 56N030W 56N040W 54N050W DCT NEEKO/N0490F380 N624C ANATI Q812 OBTEK DCT TIBOS ROCKT3 |
| Aircraft | A359/H-SDE2E3GHIJ3J4J5LM1ORWXY/LB1D1 |
Departure
| Time | 2026-04-23 21:52 |
|---|---|
| Airport | Dubai International Airport (OMDB) |
Arrival
| Time | 2026-04-24 10:48 |
|---|---|
| Airport | Montreal / Pierre Elliott Trudeau International Airport (CYUL) |
| Time | Latitude | Longitude | Altitude | Speed | Heading |
|---|---|---|---|---|---|
| 2026-04-23 21:20 | 25.24159 | 55.37326 | 26 ft | 0 kts | 31° |
| 2026-04-23 21:40 | 25.24152 | 55.37322 | 26 ft | 2 kts | 33° |
| 2026-04-23 21:40 | 25.24136 | 55.37309 | 26 ft | 3 kts | 35° |
| 2026-04-23 21:40 | 25.24126 | 55.37301 | 25 ft | 2 kts | 32° |
| 2026-04-23 21:40 | 25.24111 | 55.37290 | 24 ft | 3 kts | 45° |
| 2026-04-23 21:41 | 25.24100 | 55.37276 | 26 ft | 3 kts | 66° |
| 2026-04-23 21:41 | 25.24094 | 55.37258 | 25 ft | 3 kts | 92° |
| 2026-04-23 21:41 | 25.24096 | 55.37241 | 26 ft | 3 kts | 118° |
| 2026-04-23 21:41 | 25.24105 | 55.37224 | 25 ft | 3 kts | 121° |
| 2026-04-23 21:42 | 25.24114 | 55.37208 | 24 ft | 1 kts | 121° |
| 2026-04-23 21:42 | 25.24115 | 55.37206 | 24 ft | 5 kts | 121° |
| 2026-04-23 21:44 | 25.24101 | 55.37228 | 25 ft | 10 kts | 128° |
| 2026-04-23 21:45 | 25.24045 | 55.37319 | 27 ft | 14 kts | 121° |
| 2026-04-23 21:45 | 25.23991 | 55.37415 | 27 ft | 15 kts | 121° |
| 2026-04-23 21:45 | 25.23975 | 55.37521 | 27 ft | 13 kts | 79° |
| 2026-04-23 21:45 | 25.24015 | 55.37597 | 27 ft | 11 kts | 41° |
| 2026-04-23 21:46 | 25.24079 | 55.37645 | 27 ft | 11 kts | 31° |
| 2026-04-23 21:46 | 25.24144 | 55.37689 | 26 ft | 11 kts | 31° |
| 2026-04-23 21:46 | 25.24208 | 55.37732 | 28 ft | 11 kts | 31° |
| 2026-04-23 21:46 | 25.24270 | 55.37774 | 28 ft | 10 kts | 31° |
| 2026-04-23 21:47 | 25.24326 | 55.37813 | 29 ft | 9 kts | 33° |
| 2026-04-23 21:47 | 25.24371 | 55.37846 | 31 ft | 6 kts | 33° |
| 2026-04-23 21:47 | 25.24395 | 55.37864 | 33 ft | 2 kts | 34° |
| 2026-04-23 21:47 | 25.24400 | 55.37868 | 33 ft | 3 kts | 34° |
| 2026-04-23 21:48 | 25.24437 | 55.37896 | 36 ft | 10 kts | 34° |
| 2026-04-23 21:48 | 25.24521 | 55.37959 | 35 ft | 17 kts | 35° |
| 2026-04-23 21:48 | 25.24620 | 55.38033 | 30 ft | 14 kts | 32° |
| 2026-04-23 21:48 | 25.24636 | 55.38044 | 31 ft | 0 kts | 32° |
| 2026-04-23 21:49 | 25.24643 | 55.38049 | 32 ft | 7 kts | 32° |
| 2026-04-23 21:49 | 25.24699 | 55.38087 | 34 ft | 9 kts | 31° |
| 2026-04-23 21:49 | 25.24744 | 55.38098 | 36 ft | 5 kts | 356° |
| 2026-04-23 21:49 | 25.24781 | 55.38073 | 36 ft | 9 kts | 303° |
| 2026-04-23 21:50 | 25.24790 | 55.38056 | 36 ft | 0 kts | 301° |
| 2026-04-23 21:50 | 25.24802 | 55.38035 | 36 ft | 14 kts | 301° |
| 2026-04-23 21:51 | 25.24906 | 55.37848 | 36 ft | 50 kts | 302° |
| 2026-04-23 21:51 | 25.25201 | 55.37316 | 38 ft | 112 kts | 301° |
| 2026-04-23 21:51 | 25.25710 | 55.36397 | 36 ft | 166 kts | 302° |
| 2026-04-23 21:51 | 25.26370 | 55.35159 | 225 ft | 199 kts | 301° |
| 2026-04-23 21:52 | 25.27076 | 55.33824 | 920 ft | 200 kts | 302° |
| 2026-04-23 21:52 | 25.27805 | 55.32483 | 1590 ft | 208 kts | 302° |
| 2026-04-23 21:52 | 25.28554 | 55.31093 | 2085 ft | 208 kts | 302° |
| 2026-04-23 21:52 | 25.29261 | 55.29637 | 2234 ft | 225 kts | 291° |
| 2026-04-23 21:53 | 25.29301 | 55.27870 | 2275 ft | 243 kts | 251° |
| 2026-04-23 21:53 | 25.28546 | 55.26181 | 2588 ft | 247 kts | 239° |
| 2026-04-23 21:53 | 25.27685 | 55.24542 | 3087 ft | 246 kts | 240° |
| 2026-04-23 21:53 | 25.26865 | 55.22878 | 3626 ft | 245 kts | 242° |
| 2026-04-23 21:54 | 25.26092 | 55.21207 | 4133 ft | 244 kts | 244° |
| 2026-04-23 21:54 | 25.25344 | 55.19525 | 4667 ft | 243 kts | 245° |
| 2026-04-23 21:54 | 25.24485 | 55.17935 | 5155 ft | 241 kts | 229° |
| 2026-04-23 21:54 | 25.23152 | 55.16902 | 5674 ft | 239 kts | 200° |
| 2026-04-23 21:55 | 25.21518 | 55.16685 | 6217 ft | 237 kts | 180° |
| 2026-04-23 21:55 | 25.19873 | 55.16897 | 6636 ft | 241 kts | 168° |
| 2026-04-23 21:55 | 25.18372 | 55.17752 | 7011 ft | 249 kts | 140° |
| 2026-04-23 21:55 | 25.17320 | 55.19293 | 7370 ft | 258 kts | 122° |
| 2026-04-23 21:56 | 25.16465 | 55.21082 | 7633 ft | 269 kts | 119° |
| 2026-04-23 21:56 | 25.15605 | 55.22967 | 7888 ft | 281 kts | 119° |
| 2026-04-23 21:56 | 25.14699 | 55.24922 | 8131 ft | 292 kts | 120° |
| 2026-04-23 21:56 | 25.13755 | 55.26928 | 8431 ft | 295 kts | 120° |
| 2026-04-23 21:57 | 25.12799 | 55.28950 | 8959 ft | 297 kts | 120° |
| 2026-04-23 21:57 | 25.11833 | 55.30974 | 9493 ft | 299 kts | 121° |
| 2026-04-23 21:57 | 25.10857 | 55.33004 | 10020 ft | 300 kts | 121° |
| 2026-04-23 21:57 | 25.09911 | 55.35076 | 10531 ft | 303 kts | 117° |
| 2026-04-23 21:58 | 25.09050 | 55.37203 | 11050 ft | 305 kts | 116° |
| 2026-04-23 21:58 | 25.08191 | 55.39361 | 11428 ft | 313 kts | 116° |
| 2026-04-23 21:58 | 25.07282 | 55.41605 | 11617 ft | 328 kts | 117° |
| 2026-04-23 21:58 | 25.06341 | 55.43971 | 11772 ft | 344 kts | 115° |
| 2026-04-23 21:59 | 25.05392 | 55.46459 | 11931 ft | 359 kts | 115° |
| 2026-04-23 21:59 | 25.04322 | 55.48997 | 12073 ft | 370 kts | 124° |
| 2026-04-23 21:59 | 25.02637 | 55.51148 | 12247 ft | 375 kts | 144° |
| 2026-04-23 22:00 | 24.97824 | 55.53105 | 12629 ft | 381 kts | 182° |
| 2026-04-23 22:00 | 24.95195 | 55.52689 | 12935 ft | 381 kts | 198° |
| 2026-04-23 22:00 | 24.92673 | 55.51752 | 13324 ft | 383 kts | 202° |
| 2026-04-23 22:00 | 24.90155 | 55.50740 | 13454 ft | 386 kts | 202° |
| 2026-04-23 22:01 | 24.87614 | 55.49715 | 13705 ft | 389 kts | 202° |
| 2026-04-23 22:01 | 24.85065 | 55.48689 | 14074 ft | 390 kts | 202° |
| 2026-04-23 22:01 | 24.82507 | 55.47665 | 14427 ft | 393 kts | 202° |
| 2026-04-23 22:01 | 24.79919 | 55.46629 | 14744 ft | 397 kts | 202° |
| 2026-04-23 22:02 | 24.77317 | 55.45595 | 15103 ft | 399 kts | 202° |
| 2026-04-23 22:02 | 24.74687 | 55.44555 | 15442 ft | 402 kts | 202° |
| 2026-04-23 22:02 | 24.72040 | 55.43511 | 15778 ft | 405 kts | 202° |
| 2026-04-23 22:02 | 24.69418 | 55.42457 | 16109 ft | 407 kts | 205° |
| 2026-04-23 22:03 | 24.66953 | 55.40948 | 16436 ft | 406 kts | 219° |
| 2026-04-23 22:03 | 24.64833 | 55.38898 | 16771 ft | 406 kts | 226° |
| 2026-04-23 22:03 | 24.62826 | 55.36714 | 17126 ft | 408 kts | 227° |
| 2026-04-23 22:03 | 24.60812 | 55.34503 | 17463 ft | 410 kts | 227° |
| 2026-04-23 22:04 | 24.58848 | 55.32214 | 17809 ft | 411 kts | 233° |
| 2026-04-23 22:04 | 24.57248 | 55.29617 | 18146 ft | 411 kts | 242° |
| 2026-04-23 22:04 | 24.55911 | 55.26836 | 18440 ft | 412 kts | 245° |
| 2026-04-23 22:04 | 24.54705 | 55.23974 | 18748 ft | 414 kts | 248° |
| 2026-04-23 22:05 | 24.53581 | 55.21100 | 19035 ft | 415 kts | 249° |
| 2026-04-23 22:05 | 24.52467 | 55.18165 | 19345 ft | 417 kts | 249° |
| 2026-04-23 22:05 | 24.51348 | 55.15211 | 19656 ft | 419 kts | 249° |
| 2026-04-23 22:05 | 24.50213 | 55.12245 | 19972 ft | 421 kts | 248° |
| 2026-04-23 22:06 | 24.49125 | 55.09436 | 20262 ft | 423 kts | 248° |
| 2026-04-23 22:06 | 24.47962 | 55.06462 | 20589 ft | 425 kts | 248° |
| 2026-04-23 22:06 | 24.46785 | 55.03474 | 20914 ft | 427 kts | 248° |
| 2026-04-23 22:06 | 24.45601 | 55.00478 | 21234 ft | 429 kts | 248° |
| 2026-04-23 22:07 | 24.44411 | 54.97471 | 21545 ft | 431 kts | 248° |
| 2026-04-23 22:07 | 24.43210 | 54.94438 | 21873 ft | 433 kts | 248° |
| 2026-04-23 22:07 | 24.42009 | 54.91407 | 22199 ft | 435 kts | 248° |
| 2026-04-23 22:07 | 24.40800 | 54.88357 | 22506 ft | 437 kts | 247° |
| 2026-04-23 22:08 | 24.39588 | 54.85300 | 22840 ft | 439 kts | 247° |
| 2026-04-23 22:08 | 24.38366 | 54.82221 | 23149 ft | 441 kts | 247° |
| 2026-04-23 22:08 | 24.37140 | 54.79131 | 23430 ft | 443 kts | 247° |
| 2026-04-23 22:08 | 24.35905 | 54.76021 | 23707 ft | 445 kts | 247° |
| 2026-04-23 22:09 | 24.34679 | 54.72938 | 23984 ft | 447 kts | 247° |
| 2026-04-23 22:09 | 24.33434 | 54.69808 | 24275 ft | 448 kts | 248° |
| 2026-04-23 22:09 | 24.32186 | 54.66670 | 24568 ft | 450 kts | 248° |
| 2026-04-23 22:09 | 24.30929 | 54.63527 | 24884 ft | 451 kts | 246° |
| 2026-04-23 22:10 | 24.29452 | 54.60475 | 25184 ft | 455 kts | 239° |
| 2026-04-23 22:10 | 24.27571 | 54.57673 | 25496 ft | 459 kts | 231° |
| 2026-04-23 22:10 | 24.25348 | 54.55156 | 25794 ft | 462 kts | 226° |
| 2026-04-23 22:10 | 24.23009 | 54.52729 | 26105 ft | 464 kts | 225° |
| 2026-04-23 22:11 | 24.20708 | 54.50235 | 26398 ft | 465 kts | 229° |
| 2026-04-23 22:11 | 24.18659 | 54.47508 | 26692 ft | 464 kts | 237° |
| 2026-04-23 22:11 | 24.17012 | 54.44467 | 26978 ft | 463 kts | 246° |
| 2026-04-23 22:11 | 24.15879 | 54.41182 | 27294 ft | 462 kts | 255° |
| 2026-04-23 22:12 | 24.14916 | 54.37813 | 27597 ft | 465 kts | 252° |
| 2026-04-23 22:12 | 24.13684 | 54.34527 | 27879 ft | 468 kts | 246° |
| 2026-04-23 22:12 | 24.12232 | 54.31331 | 28191 ft | 470 kts | 245° |
| 2026-04-23 22:12 | 24.10696 | 54.28156 | 28462 ft | 472 kts | 244° |
| 2026-04-23 22:13 | 24.09108 | 54.25005 | 28733 ft | 474 kts | 243° |
| 2026-04-23 22:13 | 24.07506 | 54.21900 | 29007 ft | 475 kts | 243° |
| 2026-04-23 22:13 | 24.05860 | 54.18739 | 29255 ft | 477 kts | 243° |
| 2026-04-23 22:13 | 24.04215 | 54.15585 | 29502 ft | 479 kts | 243° |
| 2026-04-23 22:14 | 24.02564 | 54.12415 | 29790 ft | 479 kts | 243° |
| 2026-04-23 22:14 | 24.00922 | 54.09257 | 30125 ft | 477 kts | 243° |
| 2026-04-23 22:14 | 23.99284 | 54.06103 | 30475 ft | 475 kts | 243° |
| 2026-04-23 22:14 | 23.97646 | 54.02977 | 30854 ft | 472 kts | 243° |
| 2026-04-23 22:15 | 23.96009 | 53.99880 | 31207 ft | 470 kts | 243° |
| 2026-04-23 22:15 | 23.94372 | 53.96794 | 31558 ft | 467 kts | 243° |
| 2026-04-23 22:15 | 23.92742 | 53.93724 | 31899 ft | 465 kts | 243° |
| 2026-04-23 22:15 | 23.91126 | 53.90680 | 32243 ft | 462 kts | 243° |
| 2026-04-23 22:16 | 23.89513 | 53.87639 | 32575 ft | 460 kts | 243° |
| 2026-04-23 22:16 | 23.87913 | 53.84622 | 32882 ft | 458 kts | 243° |
| 2026-04-23 22:16 | 23.86339 | 53.81656 | 33206 ft | 456 kts | 244° |
| 2026-04-23 22:16 | 23.84760 | 53.78679 | 33504 ft | 454 kts | 244° |
| 2026-04-23 22:17 | 23.83174 | 53.75691 | 33775 ft | 453 kts | 244° |
| 2026-04-23 22:17 | 23.81587 | 53.72702 | 33841 ft | 453 kts | 244° |
| 2026-04-23 22:17 | 23.78428 | 53.66756 | 33843 ft | 452 kts | 244° |
| 2026-04-23 22:18 | 23.75273 | 53.60828 | 33846 ft | 451 kts | 244° |
| 2026-04-23 22:18 | 23.72121 | 53.54913 | 33848 ft | 450 kts | 244° |
| 2026-04-23 22:19 | 23.68970 | 53.49009 | 33846 ft | 450 kts | 244° |
| 2026-04-23 22:19 | 23.65843 | 53.43106 | 33846 ft | 449 kts | 244° |
| 2026-04-23 22:20 | 23.63251 | 53.38202 | 33856 ft | 449 kts | 244° |
| 2026-04-23 22:20 | 23.60129 | 53.32313 | 33848 ft | 449 kts | 244° |
| 2026-04-23 22:21 | 23.56489 | 53.25463 | 33854 ft | 449 kts | 244° |
| 2026-04-23 22:21 | 23.53881 | 53.20566 | 33847 ft | 449 kts | 244° |
| 2026-04-23 22:22 | 23.50749 | 53.14686 | 33847 ft | 448 kts | 244° |
| 2026-04-23 22:22 | 23.47615 | 53.08811 | 33851 ft | 448 kts | 244° |
| 2026-04-23 22:23 | 23.44475 | 53.02933 | 33853 ft | 448 kts | 244° |
| 2026-04-23 22:23 | 23.41334 | 52.97058 | 33850 ft | 449 kts | 244° |
| 2026-04-23 22:24 | 23.38224 | 52.91168 | 33848 ft | 448 kts | 245° |
| 2026-04-23 22:24 | 23.35223 | 52.85272 | 33850 ft | 448 kts | 245° |
| 2026-04-23 22:25 | 23.32205 | 52.79338 | 33852 ft | 448 kts | 245° |
| 2026-04-23 22:25 | 23.29165 | 52.73406 | 33851 ft | 449 kts | 245° |
| 2026-04-23 22:26 | 23.26117 | 52.67487 | 33852 ft | 449 kts | 245° |
| 2026-04-23 22:26 | 23.23059 | 52.61559 | 33850 ft | 449 kts | 245° |
| 2026-04-23 22:27 | 23.20004 | 52.55640 | 33851 ft | 449 kts | 245° |
| 2026-04-23 22:27 | 23.17357 | 52.49537 | 33852 ft | 445 kts | 253° |
| 2026-04-23 22:28 | 23.15834 | 52.43073 | 33849 ft | 440 kts | 266° |
| 2026-04-23 22:28 | 23.16048 | 52.36491 | 33849 ft | 437 kts | 281° |
| 2026-04-23 22:29 | 23.17733 | 52.30144 | 33855 ft | 439 kts | 288° |
| 2026-04-23 22:29 | 23.19731 | 52.23866 | 33858 ft | 443 kts | 288° |
| 2026-04-23 22:30 | 23.21751 | 52.17535 | 33858 ft | 443 kts | 288° |
| 2026-04-23 22:30 | 23.23730 | 52.11198 | 33860 ft | 442 kts | 288° |
| 2026-04-23 22:31 | 23.25687 | 52.04858 | 33856 ft | 442 kts | 287° |
| 2026-04-23 22:31 | 23.27640 | 51.98505 | 33859 ft | 442 kts | 287° |
| 2026-04-23 22:32 | 23.29589 | 51.92164 | 33868 ft | 442 kts | 287° |
| 2026-04-23 22:32 | 23.31526 | 51.85853 | 33864 ft | 442 kts | 287° |
| 2026-04-23 22:33 | 23.33469 | 51.79511 | 33865 ft | 442 kts | 287° |
| 2026-04-23 22:33 | 23.35411 | 51.73167 | 33867 ft | 442 kts | 287° |
| 2026-04-23 22:34 | 23.37350 | 51.66819 | 33866 ft | 442 kts | 287° |
| 2026-04-23 22:34 | 23.39287 | 51.60468 | 33868 ft | 442 kts | 287° |
| 2026-04-23 22:35 | 23.41223 | 51.54110 | 33872 ft | 442 kts | 287° |
| 2026-04-23 22:35 | 23.43158 | 51.47747 | 33873 ft | 442 kts | 287° |
| 2026-04-23 22:36 | 23.45087 | 51.41392 | 33873 ft | 442 kts | 287° |
| 2026-04-23 22:36 | 23.47002 | 51.35071 | 33876 ft | 442 kts | 287° |
| 2026-04-23 22:37 | 23.48929 | 51.28697 | 33874 ft | 444 kts | 287° |
| 2026-04-23 22:37 | 23.50867 | 51.22281 | 33875 ft | 445 kts | 287° |
| 2026-04-23 22:38 | 23.52797 | 51.15881 | 33878 ft | 445 kts | 287° |
| 2026-04-23 22:38 | 23.54713 | 51.09519 | 33877 ft | 445 kts | 287° |
| 2026-04-23 22:39 | 23.56640 | 51.03106 | 33884 ft | 445 kts | 287° |
| 2026-04-23 22:39 | 23.58565 | 50.96693 | 33886 ft | 445 kts | 287° |
| 2026-04-23 22:40 | 23.60487 | 50.90275 | 33887 ft | 445 kts | 287° |
| 2026-04-23 22:41 | 23.63367 | 50.80643 | 33892 ft | 445 kts | 287° |
| 2026-04-23 22:41 | 23.65281 | 50.74227 | 33896 ft | 445 kts | 287° |
| 2026-04-23 22:42 | 23.67196 | 50.67795 | 33895 ft | 445 kts | 287° |
| 2026-04-23 22:42 | 23.69097 | 50.61401 | 33901 ft | 446 kts | 287° |
| 2026-04-23 22:43 | 23.71009 | 50.54959 | 33898 ft | 446 kts | 287° |
| 2026-04-23 22:43 | 23.72918 | 50.48517 | 33903 ft | 446 kts | 287° |
| 2026-04-23 22:44 | 23.74824 | 50.42073 | 33902 ft | 446 kts | 287° |
| 2026-04-23 22:44 | 23.76717 | 50.35662 | 33904 ft | 447 kts | 287° |
| 2026-04-23 22:45 | 23.78634 | 50.29160 | 33904 ft | 446 kts | 287° |
| 2026-04-23 22:45 | 23.80533 | 50.22711 | 33904 ft | 446 kts | 287° |
| 2026-04-23 22:46 | 23.82419 | 50.16292 | 33904 ft | 446 kts | 286° |
| 2026-04-23 22:46 | 23.84315 | 50.09829 | 33911 ft | 446 kts | 286° |
| 2026-04-23 22:47 | 23.86207 | 50.03368 | 33908 ft | 446 kts | 286° |
| 2026-04-23 22:47 | 23.88095 | 49.96908 | 33907 ft | 446 kts | 286° |
| 2026-04-23 22:48 | 23.89985 | 49.90431 | 33909 ft | 446 kts | 286° |
| 2026-04-23 22:48 | 23.91868 | 49.83967 | 33911 ft | 446 kts | 286° |
| 2026-04-23 22:49 | 23.93746 | 49.77507 | 33914 ft | 446 kts | 286° |
| 2026-04-23 22:49 | 23.95624 | 49.71039 | 33916 ft | 446 kts | 286° |
| 2026-04-23 22:50 | 23.97483 | 49.64624 | 33917 ft | 445 kts | 286° |
| 2026-04-23 22:50 | 23.99353 | 49.58159 | 33915 ft | 446 kts | 286° |
| 2026-04-23 22:51 | 24.01219 | 49.51698 | 33921 ft | 445 kts | 286° |
| 2026-04-23 22:51 | 24.03085 | 49.45224 | 33924 ft | 445 kts | 286° |
| 2026-04-23 22:52 | 24.04944 | 49.38764 | 33926 ft | 445 kts | 286° |
| 2026-04-23 22:52 | 24.06798 | 49.32310 | 33934 ft | 444 kts | 286° |
| 2026-04-23 22:53 | 24.08646 | 49.25866 | 33936 ft | 443 kts | 286° |
| 2026-04-23 22:53 | 24.10479 | 49.19464 | 33924 ft | 443 kts | 286° |
| 2026-04-23 22:54 | 24.12317 | 49.13033 | 33949 ft | 443 kts | 285° |
| 2026-04-23 22:54 | 24.14155 | 49.06598 | 33895 ft | 443 kts | 285° |
| 2026-04-23 22:55 | 24.16004 | 49.00086 | 33949 ft | 451 kts | 285° |
| 2026-04-23 22:55 | 24.17938 | 48.93478 | 33947 ft | 458 kts | 289° |
| 2026-04-23 22:56 | 24.20866 | 48.87337 | 33954 ft | 460 kts | 299° |
| 2026-04-23 22:56 | 24.24372 | 48.81452 | 33959 ft | 461 kts | 301° |
| 2026-04-23 22:57 | 24.27961 | 48.75621 | 33961 ft | 461 kts | 301° |
| 2026-04-23 22:57 | 24.31533 | 48.69788 | 33965 ft | 461 kts | 301° |
| 2026-04-23 22:58 | 24.35091 | 48.63940 | 33967 ft | 461 kts | 301° |
| 2026-04-23 22:58 | 24.38637 | 48.58082 | 33972 ft | 461 kts | 301° |
| 2026-04-23 22:59 | 24.42181 | 48.52217 | 33969 ft | 461 kts | 301° |
| 2026-04-23 22:59 | 24.45732 | 48.46338 | 33968 ft | 462 kts | 301° |
| 2026-04-23 23:00 | 24.49266 | 48.40482 | 33972 ft | 463 kts | 301° |
| 2026-04-23 23:00 | 24.52823 | 48.34582 | 33968 ft | 463 kts | 301° |
| 2026-04-23 23:01 | 24.56377 | 48.28680 | 33975 ft | 463 kts | 300° |
| 2026-04-23 23:01 | 24.59929 | 48.22773 | 33973 ft | 464 kts | 301° |
| 2026-04-23 23:02 | 24.63489 | 48.16846 | 33975 ft | 464 kts | 301° |
| 2026-04-23 23:02 | 24.67045 | 48.10918 | 33974 ft | 465 kts | 301° |
| 2026-04-23 23:03 | 24.70605 | 48.04976 | 33977 ft | 465 kts | 301° |
| 2026-04-23 23:03 | 24.74142 | 47.99066 | 33982 ft | 465 kts | 301° |
| 2026-04-23 23:04 | 24.77710 | 47.93097 | 33985 ft | 466 kts | 301° |
| 2026-04-23 23:04 | 24.81268 | 47.87137 | 33980 ft | 466 kts | 300° |
| 2026-04-23 23:05 | 24.84832 | 47.81159 | 33983 ft | 467 kts | 300° |
| 2026-04-23 23:05 | 24.88403 | 47.75163 | 33982 ft | 468 kts | 300° |
| 2026-04-23 23:06 | 24.91951 | 47.69198 | 33984 ft | 469 kts | 300° |
| 2026-04-23 23:06 | 24.95532 | 47.63168 | 33985 ft | 470 kts | 300° |
| 2026-04-23 23:07 | 24.99117 | 47.57126 | 33990 ft | 471 kts | 300° |
| 2026-04-23 23:07 | 25.02698 | 47.51080 | 33991 ft | 471 kts | 300° |
| 2026-04-23 23:08 | 25.05543 | 47.44698 | 33994 ft | 466 kts | 285° |
| 2026-04-23 23:08 | 25.06589 | 47.37718 | 33992 ft | 461 kts | 269° |
| 2026-04-23 23:09 | 25.06019 | 47.30681 | 33994 ft | 461 kts | 262° |
| 2026-04-23 23:09 | 25.05120 | 47.23683 | 33994 ft | 461 kts | 261° |
| 2026-04-23 23:10 | 25.04357 | 47.17854 | 33998 ft | 461 kts | 261° |
| 2026-04-23 23:10 | 25.03355 | 47.09875 | 34002 ft | 460 kts | 262° |
| 2026-04-23 23:11 | 25.02636 | 47.04022 | 34005 ft | 459 kts | 262° |
| 2026-04-23 23:11 | 25.01781 | 46.97050 | 34009 ft | 458 kts | 261° |
| 2026-04-23 23:12 | 25.00923 | 46.90093 | 34016 ft | 457 kts | 262° |
| 2026-04-23 23:12 | 25.00068 | 46.83193 | 34020 ft | 457 kts | 262° |
| 2026-04-23 23:13 | 24.99367 | 46.76248 | 34017 ft | 457 kts | 268° |
| 2026-04-23 23:13 | 25.00091 | 46.69301 | 34024 ft | 460 kts | 283° |
| 2026-04-23 23:14 | 25.02748 | 46.62838 | 34021 ft | 468 kts | 300° |
| 2026-04-23 23:14 | 25.07121 | 46.57434 | 34017 ft | 476 kts | 312° |
| 2026-04-23 23:15 | 25.12013 | 46.52470 | 34012 ft | 478 kts | 313° |
| 2026-04-23 23:15 | 25.16914 | 46.47575 | 34012 ft | 478 kts | 313° |
| 2026-04-23 23:16 | 25.21817 | 46.42607 | 34007 ft | 478 kts | 312° |
| 2026-04-23 23:16 | 25.26696 | 46.37613 | 34008 ft | 478 kts | 312° |
| 2026-04-23 23:17 | 25.31565 | 46.32611 | 34004 ft | 478 kts | 312° |
| 2026-04-23 23:17 | 25.36436 | 46.27605 | 34004 ft | 478 kts | 312° |
| 2026-04-23 23:18 | 25.41300 | 46.22602 | 34001 ft | 477 kts | 311° |
| 2026-04-23 23:18 | 25.46151 | 46.17607 | 34002 ft | 476 kts | 311° |
| 2026-04-23 23:19 | 25.50994 | 46.12615 | 33999 ft | 475 kts | 311° |
| 2026-04-23 23:19 | 25.55803 | 46.07651 | 34001 ft | 474 kts | 310° |
| 2026-04-23 23:20 | 25.60630 | 46.02663 | 33997 ft | 474 kts | 310° |
| 2026-04-23 23:20 | 25.65439 | 45.97694 | 33996 ft | 473 kts | 310° |
| 2026-04-23 23:21 | 25.70247 | 45.92711 | 33996 ft | 473 kts | 310° |
| 2026-04-23 23:21 | 25.75056 | 45.87718 | 34002 ft | 473 kts | 310° |
| 2026-04-23 23:22 | 25.79857 | 45.82732 | 33990 ft | 473 kts | 310° |
| 2026-04-23 23:22 | 25.84666 | 45.77733 | 33997 ft | 473 kts | 310° |
| 2026-04-23 23:23 | 25.89440 | 45.72760 | 34000 ft | 474 kts | 310° |
| 2026-04-23 23:23 | 25.94262 | 45.67732 | 33993 ft | 475 kts | 310° |
| 2026-04-23 23:24 | 25.99091 | 45.62696 | 33997 ft | 476 kts | 310° |
| 2026-04-23 23:24 | 26.03918 | 45.57655 | 34001 ft | 476 kts | 309° |
| 2026-04-23 23:25 | 26.08708 | 45.52646 | 33997 ft | 476 kts | 309° |
| 2026-04-23 23:25 | 26.13529 | 45.47599 | 34003 ft | 476 kts | 309° |
| 2026-04-23 23:26 | 26.18351 | 45.42545 | 34007 ft | 476 kts | 309° |
| 2026-04-23 23:26 | 26.23170 | 45.37490 | 33993 ft | 476 kts | 309° |
| 2026-04-23 23:27 | 26.27993 | 45.32423 | 34000 ft | 476 kts | 309° |
| 2026-04-23 23:27 | 26.32784 | 45.27388 | 33999 ft | 476 kts | 309° |
| 2026-04-23 23:28 | 26.37612 | 45.22325 | 33997 ft | 476 kts | 309° |
| 2026-04-23 23:28 | 26.42444 | 45.17255 | 33997 ft | 477 kts | 309° |
| 2026-04-23 23:29 | 26.47273 | 45.12180 | 33995 ft | 477 kts | 309° |
| 2026-04-23 23:29 | 26.52106 | 45.07094 | 33996 ft | 477 kts | 309° |
| 2026-04-23 23:30 | 26.56935 | 45.02007 | 33998 ft | 477 kts | 309° |
| 2026-04-23 23:30 | 26.61733 | 44.96953 | 33995 ft | 477 kts | 309° |
| 2026-04-23 23:31 | 26.66555 | 44.91864 | 33990 ft | 476 kts | 309° |
| 2026-04-23 23:31 | 26.71369 | 44.86773 | 33994 ft | 476 kts | 309° |
| 2026-04-23 23:32 | 26.76180 | 44.81681 | 33993 ft | 475 kts | 309° |
| 2026-04-23 23:32 | 26.80983 | 44.76595 | 33993 ft | 475 kts | 309° |
| 2026-04-23 23:33 | 26.85769 | 44.71504 | 33981 ft | 474 kts | 309° |
| 2026-04-23 23:33 | 26.90546 | 44.66415 | 33981 ft | 474 kts | 309° |
| 2026-04-23 23:34 | 26.95328 | 44.61318 | 33991 ft | 473 kts | 308° |
| 2026-04-23 23:34 | 27.00064 | 44.56268 | 33987 ft | 473 kts | 309° |
| 2026-04-23 23:35 | 27.04826 | 44.51187 | 33989 ft | 472 kts | 308° |
| 2026-04-23 23:35 | 27.09567 | 44.46101 | 33991 ft | 471 kts | 308° |
| 2026-04-23 23:36 | 27.14308 | 44.41012 | 33989 ft | 471 kts | 308° |
| 2026-04-23 23:36 | 27.19018 | 44.35957 | 33984 ft | 471 kts | 308° |
| 2026-04-23 23:37 | 27.23757 | 44.30875 | 33996 ft | 470 kts | 308° |
| 2026-04-23 23:37 | 27.28482 | 44.25802 | 33988 ft | 470 kts | 308° |
| 2026-04-23 23:38 | 27.33208 | 44.20721 | 33992 ft | 469 kts | 308° |
| 2026-04-23 23:38 | 27.37919 | 44.15649 | 33994 ft | 468 kts | 308° |
| 2026-04-23 23:39 | 27.42626 | 44.10575 | 33992 ft | 468 kts | 308° |
| 2026-04-23 23:39 | 27.47316 | 44.05513 | 33991 ft | 467 kts | 307° |
| 2026-04-23 23:40 | 27.51998 | 44.00455 | 33991 ft | 465 kts | 307° |
| 2026-04-23 23:40 | 27.56635 | 43.95438 | 33993 ft | 464 kts | 307° |
| 2026-04-23 23:41 | 27.61285 | 43.90401 | 33997 ft | 463 kts | 307° |
| 2026-04-23 23:41 | 27.65925 | 43.85368 | 33995 ft | 462 kts | 307° |
| 2026-04-23 23:42 | 27.70553 | 43.80341 | 33997 ft | 462 kts | 307° |
| 2026-04-23 23:42 | 27.75179 | 43.75310 | 33998 ft | 461 kts | 307° |
| 2026-04-23 23:43 | 27.79789 | 43.70289 | 33996 ft | 461 kts | 306° |
| 2026-04-23 23:43 | 27.84405 | 43.65257 | 33998 ft | 461 kts | 306° |
| 2026-04-23 23:44 | 27.88885 | 43.60113 | 33996 ft | 456 kts | 303° |
| 2026-04-23 23:44 | 27.93146 | 43.54869 | 33994 ft | 455 kts | 303° |
| 2026-04-23 23:45 | 27.97439 | 43.49595 | 33995 ft | 456 kts | 303° |
| 2026-04-23 23:45 | 28.01765 | 43.44341 | 33998 ft | 456 kts | 303° |
| 2026-04-23 23:46 | 28.06098 | 43.39104 | 34004 ft | 455 kts | 304° |
| 2026-04-23 23:46 | 28.10430 | 43.33866 | 33994 ft | 455 kts | 304° |
| 2026-04-23 23:47 | 28.14752 | 43.28629 | 33999 ft | 455 kts | 304° |
| 2026-04-23 23:47 | 28.19075 | 43.23382 | 33998 ft | 455 kts | 304° |
| 2026-04-23 23:48 | 28.23374 | 43.18157 | 34001 ft | 455 kts | 304° |
| 2026-04-23 23:48 | 28.27697 | 43.12896 | 33998 ft | 456 kts | 304° |
| 2026-04-23 23:49 | 28.34200 | 43.04970 | 33996 ft | 458 kts | 304° |
| 2026-04-23 23:49 | 28.38543 | 42.99670 | 33997 ft | 459 kts | 304° |
| 2026-04-23 23:50 | 28.42905 | 42.94338 | 34004 ft | 461 kts | 304° |
| 2026-04-23 23:50 | 28.47251 | 42.89018 | 33997 ft | 463 kts | 304° |
| 2026-04-23 23:51 | 28.51644 | 42.83637 | 33996 ft | 465 kts | 304° |
| 2026-04-23 23:51 | 28.56052 | 42.78230 | 33997 ft | 467 kts | 304° |
| 2026-04-23 23:52 | 28.60476 | 42.72794 | 33994 ft | 468 kts | 304° |
| 2026-04-23 23:52 | 28.64718 | 42.67204 | 33995 ft | 461 kts | 297° |
| 2026-04-23 23:53 | 28.68284 | 42.61168 | 33994 ft | 459 kts | 295° |
| 2026-04-23 23:53 | 28.71705 | 42.55076 | 33993 ft | 459 kts | 294° |
| 2026-04-23 23:54 | 28.75134 | 42.48923 | 33995 ft | 459 kts | 294° |
| 2026-04-23 23:54 | 28.78570 | 42.42780 | 33995 ft | 460 kts | 294° |
| 2026-04-23 23:55 | 28.82013 | 42.36634 | 33996 ft | 459 kts | 294° |
| 2026-04-23 23:55 | 28.85455 | 42.30486 | 33999 ft | 459 kts | 294° |
| 2026-04-23 23:56 | 28.88891 | 42.24338 | 34000 ft | 459 kts | 294° |
| 2026-04-23 23:56 | 28.92325 | 42.18182 | 33997 ft | 459 kts | 294° |
| 2026-04-23 23:57 | 28.95732 | 42.12068 | 34006 ft | 459 kts | 294° |
| 2026-04-23 23:57 | 28.99158 | 42.05910 | 33997 ft | 459 kts | 294° |
| 2026-04-23 23:58 | 29.02579 | 41.99752 | 33996 ft | 458 kts | 293° |
| 2026-04-23 23:58 | 29.05981 | 41.93622 | 34001 ft | 456 kts | 293° |
| 2026-04-23 23:59 | 29.08807 | 41.88533 | 33997 ft | 455 kts | 293° |
| 2026-04-23 23:59 | 29.12179 | 41.82429 | 34003 ft | 453 kts | 293° |
| 2026-04-24 00:00 | 29.15536 | 41.76340 | 33996 ft | 452 kts | 292° |
| 2026-04-24 00:00 | 29.18885 | 41.70262 | 34000 ft | 450 kts | 292° |
| 2026-04-24 00:01 | 29.22197 | 41.64244 | 34002 ft | 449 kts | 292° |
| 2026-04-24 00:01 | 29.25519 | 41.58198 | 33999 ft | 448 kts | 292° |
| 2026-04-24 00:02 | 29.28831 | 41.52160 | 33998 ft | 447 kts | 292° |
| 2026-04-24 00:02 | 29.32140 | 41.46120 | 33999 ft | 447 kts | 292° |
| 2026-04-24 00:03 | 29.35442 | 41.40086 | 34000 ft | 446 kts | 292° |
| 2026-04-24 00:03 | 29.38739 | 41.34063 | 34001 ft | 446 kts | 292° |
| 2026-04-24 00:04 | 29.42035 | 41.28022 | 33997 ft | 446 kts | 292° |
| 2026-04-24 00:04 | 29.45320 | 41.21992 | 33992 ft | 445 kts | 292° |
| 2026-04-24 00:05 | 29.48598 | 41.15968 | 33995 ft | 445 kts | 292° |
| 2026-04-24 00:05 | 29.51854 | 41.09977 | 33997 ft | 445 kts | 292° |
| 2026-04-24 00:06 | 29.55131 | 41.03939 | 33992 ft | 444 kts | 292° |
| 2026-04-24 00:06 | 29.58396 | 40.97915 | 33991 ft | 444 kts | 292° |
| 2026-04-24 00:07 | 29.61658 | 40.91888 | 33992 ft | 443 kts | 292° |
| 2026-04-24 00:07 | 29.64909 | 40.85871 | 33999 ft | 443 kts | 292° |
| 2026-04-24 00:08 | 29.68153 | 40.79857 | 33996 ft | 442 kts | 292° |
| 2026-04-24 00:08 | 29.71372 | 40.73883 | 33995 ft | 442 kts | 292° |
| 2026-04-24 00:09 | 29.74606 | 40.67871 | 33995 ft | 441 kts | 292° |
| 2026-04-24 00:09 | 29.78025 | 40.61971 | 33982 ft | 446 kts | 297° |
| 2026-04-24 00:10 | 29.81742 | 40.56223 | 33994 ft | 447 kts | 297° |
| 2026-04-24 00:10 | 29.85495 | 40.50520 | 33986 ft | 447 kts | 298° |
| 2026-04-24 00:11 | 29.89250 | 40.44806 | 33988 ft | 446 kts | 298° |
| 2026-04-24 00:11 | 29.92960 | 40.39135 | 33988 ft | 446 kts | 298° |
| 2026-04-24 00:12 | 29.96685 | 40.33423 | 33990 ft | 446 kts | 298° |
| 2026-04-24 00:12 | 30.00415 | 40.27696 | 33993 ft | 446 kts | 298° |
| 2026-04-24 00:13 | 30.04150 | 40.21966 | 33984 ft | 447 kts | 298° |
| 2026-04-24 00:13 | 30.07862 | 40.16252 | 33984 ft | 447 kts | 298° |
| 2026-04-24 00:14 | 30.11589 | 40.10507 | 33981 ft | 447 kts | 298° |
| 2026-04-24 00:14 | 30.15322 | 40.04749 | 33983 ft | 448 kts | 298° |
| 2026-04-24 00:15 | 30.19055 | 39.98981 | 33986 ft | 448 kts | 298° |
| 2026-04-24 00:15 | 30.22793 | 39.93196 | 33993 ft | 449 kts | 298° |
| 2026-04-24 00:16 | 30.26530 | 39.87405 | 33973 ft | 449 kts | 298° |
| 2026-04-24 00:16 | 30.30243 | 39.81640 | 33982 ft | 449 kts | 298° |
| 2026-04-24 00:17 | 30.33976 | 39.75839 | 33970 ft | 449 kts | 298° |
| 2026-04-24 00:17 | 30.37710 | 39.70031 | 33974 ft | 450 kts | 299° |
| 2026-04-24 00:18 | 30.41307 | 39.64127 | 33972 ft | 444 kts | 293° |
| 2026-04-24 00:18 | 30.44211 | 39.57861 | 33971 ft | 441 kts | 290° |
| 2026-04-24 00:19 | 30.46978 | 39.51512 | 33966 ft | 441 kts | 290° |
| 2026-04-24 00:19 | 30.49712 | 39.45176 | 33965 ft | 442 kts | 290° |
| 2026-04-24 00:20 | 30.52471 | 39.38803 | 33962 ft | 442 kts | 290° |
| 2026-04-24 00:20 | 30.55239 | 39.32421 | 33957 ft | 443 kts | 290° |
| 2026-04-24 00:21 | 30.58010 | 39.26026 | 33956 ft | 443 kts | 290° |
| 2026-04-24 00:21 | 30.60762 | 39.19665 | 33950 ft | 443 kts | 290° |
| 2026-04-24 00:22 | 30.63530 | 39.13254 | 33951 ft | 444 kts | 290° |
| 2026-04-24 00:22 | 30.66292 | 39.06843 | 33942 ft | 444 kts | 290° |
| 2026-04-24 00:23 | 30.69058 | 39.00414 | 33940 ft | 445 kts | 290° |
| 2026-04-24 00:23 | 30.71822 | 38.93978 | 33935 ft | 445 kts | 290° |
| 2026-04-24 00:24 | 30.74588 | 38.87528 | 33933 ft | 446 kts | 291° |
| 2026-04-24 00:24 | 30.77336 | 38.81107 | 33927 ft | 446 kts | 291° |
| 2026-04-24 00:25 | 30.79832 | 38.74530 | 33930 ft | 443 kts | 286° |
| 2026-04-24 00:25 | 30.81985 | 38.67826 | 33925 ft | 442 kts | 285° |
| 2026-04-24 00:26 | 30.84080 | 38.61102 | 33926 ft | 443 kts | 285° |
| 2026-04-24 00:26 | 30.86175 | 38.54362 | 33921 ft | 443 kts | 285° |
| 2026-04-24 00:27 | 30.88275 | 38.47619 | 33923 ft | 443 kts | 285° |
| 2026-04-24 00:27 | 30.90377 | 38.40869 | 33917 ft | 443 kts | 285° |
| 2026-04-24 00:28 | 30.92477 | 38.34111 | 33917 ft | 444 kts | 285° |
| 2026-04-24 00:28 | 30.94577 | 38.27338 | 33915 ft | 444 kts | 285° |
| 2026-04-24 00:29 | 30.96674 | 38.20559 | 33913 ft | 445 kts | 285° |
| 2026-04-24 00:29 | 30.98757 | 38.13814 | 33918 ft | 445 kts | 285° |
| 2026-04-24 00:30 | 31.00850 | 38.07018 | 33911 ft | 446 kts | 285° |
| 2026-04-24 00:30 | 31.02942 | 38.00214 | 33913 ft | 446 kts | 285° |
| 2026-04-24 00:31 | 31.05035 | 37.93395 | 33917 ft | 446 kts | 285° |
| 2026-04-24 00:31 | 31.07124 | 37.86570 | 33910 ft | 446 kts | 285° |
| 2026-04-24 00:32 | 31.09209 | 37.79744 | 33911 ft | 447 kts | 285° |
| 2026-04-24 00:32 | 31.11288 | 37.72921 | 33909 ft | 447 kts | 285° |
| 2026-04-24 00:33 | 31.13367 | 37.66086 | 33910 ft | 447 kts | 285° |
| 2026-04-24 00:33 | 31.16032 | 37.59483 | 33906 ft | 455 kts | 298° |
| 2026-04-24 00:34 | 31.20079 | 37.53774 | 33908 ft | 463 kts | 308° |
| 2026-04-24 00:34 | 31.24592 | 37.48392 | 33909 ft | 464 kts | 309° |
| 2026-04-24 00:35 | 31.29162 | 37.43054 | 33914 ft | 464 kts | 309° |
| 2026-04-24 00:35 | 31.33706 | 37.37690 | 33919 ft | 464 kts | 309° |
| 2026-04-24 00:36 | 31.38230 | 37.32299 | 33906 ft | 464 kts | 309° |
| 2026-04-24 00:36 | 31.43177 | 37.27376 | 33917 ft | 472 kts | 320° |
| 2026-04-24 00:37 | 31.48732 | 37.23223 | 33912 ft | 474 kts | 323° |
| 2026-04-24 00:37 | 31.54381 | 37.19212 | 33914 ft | 474 kts | 323° |
| 2026-04-24 00:38 | 31.59973 | 37.15121 | 33910 ft | 473 kts | 321° |
| 2026-04-24 00:38 | 31.65430 | 37.10903 | 33912 ft | 472 kts | 321° |
| 2026-04-24 00:39 | 31.70915 | 37.06643 | 33915 ft | 472 kts | 321° |
| 2026-04-24 00:39 | 31.76404 | 37.02406 | 33922 ft | 472 kts | 321° |
| 2026-04-24 00:40 | 31.81898 | 36.98179 | 33917 ft | 472 kts | 321° |
| 2026-04-24 00:40 | 31.87502 | 36.94131 | 33918 ft | 474 kts | 324° |
| 2026-04-24 00:41 | 31.93191 | 36.90280 | 33919 ft | 474 kts | 324° |
| 2026-04-24 00:41 | 31.98890 | 36.86396 | 33921 ft | 473 kts | 324° |
| 2026-04-24 00:42 | 32.04572 | 36.82464 | 33926 ft | 472 kts | 324° |
| 2026-04-24 00:42 | 32.10226 | 36.78523 | 33927 ft | 472 kts | 324° |
| 2026-04-24 00:43 | 32.15879 | 36.74570 | 33936 ft | 472 kts | 323° |
| 2026-04-24 00:43 | 32.21453 | 36.70499 | 33939 ft | 470 kts | 322° |
| 2026-04-24 00:44 | 32.26985 | 36.66380 | 33952 ft | 470 kts | 322° |
| 2026-04-24 00:44 | 32.32756 | 36.62671 | 33953 ft | 478 kts | 333° |
| 2026-04-24 00:45 | 32.39298 | 36.60816 | 33960 ft | 489 kts | 346° |
| 2026-04-24 00:45 | 32.46081 | 36.59867 | 33956 ft | 491 kts | 348° |
| 2026-04-24 00:46 | 32.52843 | 36.59070 | 33962 ft | 492 kts | 348° |
| 2026-04-24 00:46 | 32.59654 | 36.58234 | 33964 ft | 491 kts | 348° |
| 2026-04-24 00:47 | 32.66448 | 36.57358 | 33965 ft | 491 kts | 348° |
| 2026-04-24 00:47 | 32.73241 | 36.56470 | 33965 ft | 491 kts | 348° |
| 2026-04-24 00:48 | 32.80051 | 36.55723 | 33965 ft | 492 kts | 349° |
| 2026-04-24 00:48 | 32.86846 | 36.55046 | 33960 ft | 492 kts | 349° |
| 2026-04-24 00:49 | 32.93679 | 36.54351 | 33956 ft | 492 kts | 349° |
| 2026-04-24 00:49 | 33.00503 | 36.53637 | 33956 ft | 492 kts | 349° |
| 2026-04-24 00:50 | 33.06165 | 36.52995 | 33948 ft | 490 kts | 347° |
| 2026-04-24 00:50 | 33.12874 | 36.51710 | 33948 ft | 487 kts | 343° |
| 2026-04-24 00:51 | 33.19554 | 36.50255 | 33945 ft | 487 kts | 343° |
| 2026-04-24 00:51 | 33.26251 | 36.48870 | 33941 ft | 488 kts | 344° |
| 2026-04-24 00:52 | 33.32956 | 36.47549 | 33937 ft | 488 kts | 345° |
| 2026-04-24 00:52 | 33.39823 | 36.47302 | 33944 ft | 500 kts | 358° |
| 2026-04-24 00:53 | 33.46773 | 36.48057 | 33940 ft | 502 kts | 0° |
| 2026-04-24 00:53 | 33.53677 | 36.48977 | 33941 ft | 502 kts | 0° |
| 2026-04-24 00:54 | 33.60626 | 36.49899 | 33942 ft | 501 kts | 0° |
| 2026-04-24 00:54 | 33.67565 | 36.50803 | 33946 ft | 502 kts | 0° |
| 2026-04-24 00:55 | 33.74506 | 36.51726 | 33944 ft | 501 kts | 0° |
| 2026-04-24 00:55 | 33.81435 | 36.52648 | 33946 ft | 501 kts | 0° |
| 2026-04-24 00:56 | 33.88373 | 36.53622 | 33948 ft | 502 kts | 2° |
| 2026-04-24 00:56 | 33.95278 | 36.55093 | 33944 ft | 505 kts | 5° |
| 2026-04-24 00:57 | 34.02199 | 36.56140 | 33945 ft | 499 kts | 359° |
| 2026-04-24 00:57 | 34.09039 | 36.56410 | 33945 ft | 489 kts | 347° |
| 2026-04-24 00:58 | 34.12360 | 36.55735 | 33947 ft | 479 kts | 339° |
| 2026-04-24 00:58 | 34.18345 | 36.52616 | 33998 ft | 461 kts | 320° |
| 2026-04-24 00:58 | 34.20859 | 36.50289 | 34297 ft | 450 kts | 312° |
| 2026-04-24 00:59 | 34.23000 | 36.47590 | 34603 ft | 441 kts | 304° |
| 2026-04-24 00:59 | 34.24758 | 36.44578 | 34828 ft | 435 kts | 296° |
| 2026-04-24 00:59 | 34.26101 | 36.41324 | 35038 ft | 430 kts | 288° |
| 2026-04-24 00:59 | 34.27020 | 36.37909 | 35256 ft | 426 kts | 281° |
| 2026-04-24 01:00 | 34.27514 | 36.34393 | 35463 ft | 423 kts | 273° |
| 2026-04-24 01:00 | 34.27726 | 36.30841 | 35667 ft | 422 kts | 271° |
| 2026-04-24 01:00 | 34.27854 | 36.27347 | 35843 ft | 422 kts | 270° |
| 2026-04-24 01:01 | 34.28046 | 36.20210 | 35953 ft | 427 kts | 270° |
| 2026-04-24 01:01 | 34.28259 | 36.13032 | 35954 ft | 427 kts | 270° |
| 2026-04-24 01:02 | 34.28499 | 36.05853 | 35947 ft | 427 kts | 271° |
| 2026-04-24 01:02 | 34.28750 | 35.98674 | 35952 ft | 427 kts | 271° |
| 2026-04-24 01:03 | 34.29066 | 35.91498 | 35948 ft | 427 kts | 271° |
| 2026-04-24 01:03 | 34.29409 | 35.84324 | 35950 ft | 427 kts | 271° |
| 2026-04-24 01:04 | 34.29739 | 35.77138 | 35945 ft | 427 kts | 271° |
| 2026-04-24 01:04 | 34.30309 | 35.70029 | 35943 ft | 430 kts | 278° |
| 2026-04-24 01:05 | 34.31959 | 35.63051 | 35944 ft | 432 kts | 285° |
| 2026-04-24 01:05 | 34.33903 | 35.56162 | 35944 ft | 433 kts | 285° |
| 2026-04-24 01:06 | 34.35880 | 35.49286 | 35942 ft | 433 kts | 285° |
| 2026-04-24 01:06 | 34.37835 | 35.42398 | 35941 ft | 432 kts | 285° |
| 2026-04-24 01:07 | 34.39764 | 35.35523 | 35941 ft | 432 kts | 285° |
| 2026-04-24 01:07 | 34.41690 | 35.28623 | 35941 ft | 432 kts | 285° |
| 2026-04-24 01:08 | 34.43610 | 35.21732 | 35941 ft | 431 kts | 285° |
| 2026-04-24 01:08 | 34.45525 | 35.14845 | 35938 ft | 431 kts | 285° |
| 2026-04-24 01:09 | 34.47422 | 35.08007 | 35933 ft | 430 kts | 285° |
| 2026-04-24 01:09 | 34.49335 | 35.01131 | 35938 ft | 430 kts | 285° |
| 2026-04-24 01:10 | 34.51264 | 34.94268 | 35940 ft | 430 kts | 285° |
| 2026-04-24 01:10 | 34.53189 | 34.87411 | 35936 ft | 429 kts | 285° |
| 2026-04-24 01:11 | 34.55106 | 34.80558 | 35938 ft | 429 kts | 285° |
| 2026-04-24 01:11 | 34.57020 | 34.73692 | 35934 ft | 429 kts | 285° |
| 2026-04-24 01:12 | 34.58927 | 34.66834 | 35935 ft | 429 kts | 285° |
| 2026-04-24 01:12 | 34.60831 | 34.59968 | 35932 ft | 429 kts | 285° |
| 2026-04-24 01:13 | 34.62730 | 34.53103 | 35934 ft | 429 kts | 285° |
| 2026-04-24 01:13 | 34.64627 | 34.46229 | 35930 ft | 429 kts | 285° |
| 2026-04-24 01:14 | 34.66509 | 34.39396 | 35929 ft | 429 kts | 285° |
| 2026-04-24 01:14 | 34.68399 | 34.32512 | 35932 ft | 429 kts | 285° |
| 2026-04-24 01:15 | 34.70540 | 34.25711 | 35935 ft | 434 kts | 292° |
| 2026-04-24 01:15 | 34.74000 | 34.19619 | 35935 ft | 445 kts | 307° |
| 2026-04-24 01:16 | 34.78957 | 34.14923 | 35931 ft | 462 kts | 324° |
| 2026-04-24 01:16 | 34.85124 | 34.12270 | 35935 ft | 482 kts | 343° |
| 2026-04-24 01:17 | 34.91887 | 34.12016 | 35934 ft | 497 kts | 356° |
| 2026-04-24 01:17 | 34.98816 | 34.12630 | 35934 ft | 499 kts | 357° |
| 2026-04-24 01:18 | 35.05739 | 34.13183 | 35932 ft | 498 kts | 356° |
| 2026-04-24 01:18 | 35.12663 | 34.13647 | 35930 ft | 498 kts | 356° |
| 2026-04-24 01:19 | 35.19589 | 34.14089 | 35931 ft | 498 kts | 356° |
| 2026-04-24 01:19 | 35.26517 | 34.14537 | 35929 ft | 498 kts | 356° |
| 2026-04-24 01:20 | 35.33411 | 34.14988 | 35929 ft | 498 kts | 356° |
| 2026-04-24 01:20 | 35.40343 | 34.15444 | 35931 ft | 499 kts | 356° |
| 2026-04-24 01:21 | 35.47277 | 34.15901 | 35932 ft | 499 kts | 356° |
| 2026-04-24 01:21 | 35.54213 | 34.16359 | 35932 ft | 499 kts | 356° |
| 2026-04-24 01:22 | 35.61146 | 34.16818 | 35922 ft | 499 kts | 356° |
| 2026-04-24 01:22 | 35.68016 | 34.16676 | 35923 ft | 487 kts | 344° |
| 2026-04-24 01:23 | 35.74303 | 34.14291 | 35920 ft | 468 kts | 326° |
| 2026-04-24 01:23 | 35.79949 | 34.10385 | 35910 ft | 464 kts | 322° |
| 2026-04-24 01:24 | 35.85455 | 34.06238 | 35911 ft | 463 kts | 321° |
| 2026-04-24 01:24 | 35.90959 | 34.02084 | 35918 ft | 463 kts | 322° |
| 2026-04-24 01:25 | 35.96478 | 33.97941 | 35915 ft | 463 kts | 322° |
| 2026-04-24 01:25 | 36.01934 | 33.93806 | 35918 ft | 463 kts | 321° |
| 2026-04-24 01:26 | 36.07430 | 33.89638 | 35915 ft | 463 kts | 321° |
| 2026-04-24 01:26 | 36.12925 | 33.85472 | 35917 ft | 463 kts | 321° |
| 2026-04-24 01:27 | 36.18417 | 33.81306 | 35918 ft | 463 kts | 321° |
| 2026-04-24 01:27 | 36.23909 | 33.77133 | 35919 ft | 463 kts | 321° |
| 2026-04-24 01:28 | 36.29393 | 33.72954 | 35921 ft | 463 kts | 321° |
| 2026-04-24 01:28 | 36.34874 | 33.68772 | 35921 ft | 462 kts | 321° |
| 2026-04-24 01:29 | 36.40361 | 33.64578 | 35924 ft | 462 kts | 321° |
| 2026-04-24 01:29 | 36.45803 | 33.60416 | 35925 ft | 462 kts | 321° |
| 2026-04-24 01:30 | 36.51274 | 33.56222 | 35928 ft | 462 kts | 321° |
| 2026-04-24 01:30 | 36.56751 | 33.52015 | 35927 ft | 462 kts | 321° |
| 2026-04-24 01:31 | 36.62222 | 33.47806 | 35925 ft | 462 kts | 321° |
| 2026-04-24 01:31 | 36.67686 | 33.43595 | 35932 ft | 462 kts | 321° |
| 2026-04-24 01:32 | 36.73153 | 33.39376 | 35934 ft | 462 kts | 321° |
| 2026-04-24 01:32 | 36.78574 | 33.35184 | 35946 ft | 462 kts | 321° |
| 2026-04-24 01:33 | 36.84021 | 33.30933 | 35939 ft | 459 kts | 319° |
| 2026-04-24 01:33 | 36.88787 | 33.25816 | 35948 ft | 448 kts | 308° |
| 2026-04-24 01:34 | 36.93053 | 33.20158 | 35954 ft | 447 kts | 306° |
| 2026-04-24 01:34 | 36.97228 | 33.14416 | 35963 ft | 446 kts | 306° |
| 2026-04-24 01:35 | 37.01398 | 33.08680 | 35963 ft | 446 kts | 306° |
| 2026-04-24 01:35 | 37.05590 | 33.02940 | 35965 ft | 446 kts | 306° |
| 2026-04-24 01:36 | 37.09759 | 32.97237 | 35970 ft | 446 kts | 306° |
| 2026-04-24 01:36 | 37.13945 | 32.91501 | 35974 ft | 446 kts | 306° |
| 2026-04-24 01:37 | 37.18128 | 32.85761 | 35977 ft | 446 kts | 306° |
| 2026-04-24 01:37 | 37.21602 | 32.80982 | 35980 ft | 446 kts | 306° |
| 2026-04-24 01:38 | 37.25779 | 32.75229 | 35980 ft | 446 kts | 306° |
| 2026-04-24 01:38 | 37.29954 | 32.69469 | 35985 ft | 446 kts | 306° |
| 2026-04-24 01:39 | 37.34134 | 32.63691 | 35993 ft | 446 kts | 306° |
| 2026-04-24 01:39 | 37.38280 | 32.57951 | 35994 ft | 446 kts | 306° |
| 2026-04-24 01:40 | 37.42478 | 32.52129 | 35992 ft | 446 kts | 306° |
| 2026-04-24 01:40 | 37.46620 | 32.46372 | 35994 ft | 446 kts | 306° |
| 2026-04-24 01:41 | 37.50784 | 32.40575 | 35990 ft | 446 kts | 306° |
| 2026-04-24 01:41 | 37.54945 | 32.34772 | 35990 ft | 446 kts | 306° |
| 2026-04-24 01:42 | 37.59098 | 32.28969 | 35986 ft | 446 kts | 306° |
| 2026-04-24 01:42 | 37.63257 | 32.23149 | 35982 ft | 446 kts | 306° |
| 2026-04-24 01:43 | 37.67409 | 32.17327 | 35981 ft | 446 kts | 306° |
| 2026-04-24 01:43 | 37.71560 | 32.11495 | 35990 ft | 447 kts | 306° |
| 2026-04-24 01:44 | 37.75685 | 32.05693 | 35988 ft | 446 kts | 306° |
| 2026-04-24 01:44 | 37.79828 | 31.99853 | 35988 ft | 446 kts | 306° |
| 2026-04-24 01:45 | 37.83968 | 31.94002 | 35980 ft | 446 kts | 306° |
| 2026-04-24 01:45 | 37.88107 | 31.88143 | 35984 ft | 446 kts | 306° |
| 2026-04-24 01:46 | 37.92245 | 31.82277 | 35974 ft | 446 kts | 306° |
| 2026-04-24 01:46 | 37.96381 | 31.76404 | 35995 ft | 447 kts | 306° |
| 2026-04-24 01:47 | 38.00512 | 31.70527 | 35984 ft | 447 kts | 306° |
| 2026-04-24 01:47 | 38.04650 | 31.64628 | 35987 ft | 447 kts | 306° |
| 2026-04-24 01:48 | 38.08759 | 31.58762 | 35986 ft | 447 kts | 306° |
| 2026-04-24 01:48 | 38.12901 | 31.52840 | 35987 ft | 447 kts | 306° |
| 2026-04-24 01:49 | 38.17031 | 31.46914 | 35987 ft | 448 kts | 305° |
| 2026-04-24 01:49 | 38.21160 | 31.40983 | 35985 ft | 448 kts | 306° |
| 2026-04-24 01:50 | 38.25265 | 31.35079 | 35985 ft | 448 kts | 306° |
| 2026-04-24 01:50 | 38.29394 | 31.29125 | 35989 ft | 448 kts | 306° |
| 2026-04-24 01:51 | 38.33524 | 31.23160 | 35984 ft | 449 kts | 305° |
| 2026-04-24 01:51 | 38.37653 | 31.17184 | 35990 ft | 449 kts | 305° |
| 2026-04-24 01:52 | 38.41784 | 31.11195 | 35996 ft | 450 kts | 305° |
| 2026-04-24 01:52 | 38.45919 | 31.05190 | 35998 ft | 450 kts | 305° |
| 2026-04-24 01:53 | 38.49993 | 30.99187 | 36001 ft | 449 kts | 303° |
| 2026-04-24 01:53 | 38.53750 | 30.92862 | 36008 ft | 447 kts | 301° |
| 2026-04-24 01:54 | 38.57407 | 30.86435 | 36007 ft | 447 kts | 301° |
| 2026-04-24 01:54 | 38.61115 | 30.80028 | 36008 ft | 448 kts | 301° |
| 2026-04-24 01:55 | 38.64865 | 30.73636 | 36035 ft | 449 kts | 302° |
| 2026-04-24 01:55 | 38.68629 | 30.67238 | 36032 ft | 450 kts | 302° |
| 2026-04-24 01:56 | 38.72982 | 30.61368 | 36037 ft | 462 kts | 315° |
| 2026-04-24 01:56 | 38.78479 | 30.56993 | 36048 ft | 471 kts | 326° |
| 2026-04-24 01:57 | 38.84334 | 30.53151 | 36053 ft | 474 kts | 327° |
| 2026-04-24 01:57 | 38.90236 | 30.49372 | 36057 ft | 474 kts | 327° |
| 2026-04-24 01:58 | 38.96126 | 30.45544 | 36061 ft | 474 kts | 327° |
| 2026-04-24 01:58 | 39.02015 | 30.41672 | 36068 ft | 475 kts | 327° |
| 2026-04-24 01:59 | 39.07905 | 30.37780 | 36070 ft | 476 kts | 328° |
| 2026-04-24 01:59 | 39.13797 | 30.33881 | 36069 ft | 476 kts | 328° |
| 2026-04-24 02:00 | 39.19667 | 30.29992 | 36070 ft | 477 kts | 328° |
| 2026-04-24 02:00 | 39.25569 | 30.26075 | 36068 ft | 477 kts | 328° |
| 2026-04-24 02:01 | 39.31478 | 30.22145 | 36070 ft | 478 kts | 328° |
| 2026-04-24 02:01 | 39.37388 | 30.18206 | 36074 ft | 478 kts | 328° |
| 2026-04-24 02:02 | 39.43299 | 30.14260 | 36071 ft | 478 kts | 328° |
| 2026-04-24 02:02 | 39.49252 | 30.10388 | 36070 ft | 480 kts | 331° |
| 2026-04-24 02:03 | 39.58517 | 30.05342 | 36068 ft | 482 kts | 334° |
| 2026-04-24 02:03 | 39.64710 | 30.02007 | 36063 ft | 482 kts | 334° |
| 2026-04-24 02:04 | 39.70829 | 29.98621 | 36063 ft | 481 kts | 333° |
| 2026-04-24 02:04 | 39.76996 | 29.95164 | 36062 ft | 482 kts | 334° |
| 2026-04-24 02:05 | 39.83146 | 29.91708 | 36063 ft | 482 kts | 334° |
| 2026-04-24 02:05 | 39.89289 | 29.88207 | 36059 ft | 481 kts | 332° |
| 2026-04-24 02:06 | 39.94937 | 29.83581 | 36057 ft | 478 kts | 322° |
| 2026-04-24 02:06 | 40.00248 | 29.78384 | 36044 ft | 478 kts | 321° |
| 2026-04-24 02:07 | 40.05653 | 29.73404 | 36036 ft | 480 kts | 328° |
| 2026-04-24 02:07 | 40.11535 | 29.69232 | 36023 ft | 481 kts | 331° |
| 2026-04-24 02:08 | 40.17500 | 29.65232 | 36021 ft | 482 kts | 332° |
| 2026-04-24 02:08 | 40.23420 | 29.61095 | 36022 ft | 481 kts | 326° |
| 2026-04-24 02:09 | 40.28429 | 29.55342 | 36021 ft | 479 kts | 309° |
| 2026-04-24 02:09 | 40.32453 | 29.48449 | 36020 ft | 480 kts | 305° |
| 2026-04-24 02:10 | 40.36324 | 29.41308 | 36018 ft | 480 kts | 305° |
| 2026-04-24 02:10 | 40.40191 | 29.34156 | 36017 ft | 481 kts | 305° |
| 2026-04-24 02:11 | 40.44088 | 29.27010 | 36009 ft | 481 kts | 305° |
| 2026-04-24 02:11 | 40.48507 | 29.20426 | 36007 ft | 482 kts | 319° |
| 2026-04-24 02:12 | 40.54000 | 29.15364 | 36004 ft | 483 kts | 327° |
| 2026-04-24 02:12 | 40.59720 | 29.10717 | 35997 ft | 483 kts | 328° |
| 2026-04-24 02:13 | 40.65457 | 29.06126 | 35994 ft | 482 kts | 328° |
| 2026-04-24 02:13 | 40.71183 | 29.01518 | 35997 ft | 482 kts | 328° |
| 2026-04-24 02:14 | 40.76845 | 28.96914 | 35996 ft | 481 kts | 328° |
| 2026-04-24 02:14 | 40.82534 | 28.92260 | 35997 ft | 480 kts | 328° |
| 2026-04-24 02:15 | 40.88197 | 28.87615 | 35994 ft | 479 kts | 328° |
| 2026-04-24 02:15 | 40.93847 | 28.82946 | 35993 ft | 478 kts | 326° |
| 2026-04-24 02:16 | 40.98906 | 28.77260 | 35992 ft | 477 kts | 316° |
| 2026-04-24 02:16 | 41.03539 | 28.70967 | 35993 ft | 477 kts | 314° |
| 2026-04-24 02:17 | 41.08099 | 28.64568 | 35990 ft | 477 kts | 314° |
| 2026-04-24 02:17 | 41.12657 | 28.58170 | 35974 ft | 477 kts | 314° |
| 2026-04-24 02:18 | 41.17228 | 28.51776 | 35974 ft | 477 kts | 314° |
| 2026-04-24 02:18 | 41.21803 | 28.45378 | 35975 ft | 478 kts | 314° |
| 2026-04-24 02:19 | 41.26354 | 28.39008 | 35979 ft | 478 kts | 314° |
| 2026-04-24 02:19 | 41.31492 | 28.33414 | 35982 ft | 477 kts | 326° |
| 2026-04-24 02:20 | 41.37053 | 28.28566 | 35981 ft | 478 kts | 328° |
| 2026-04-24 02:20 | 41.42682 | 28.23855 | 35979 ft | 478 kts | 328° |
| 2026-04-24 02:21 | 41.48279 | 28.19158 | 35984 ft | 478 kts | 328° |
| 2026-04-24 02:21 | 41.53886 | 28.14408 | 35973 ft | 477 kts | 328° |
| 2026-04-24 02:22 | 41.59484 | 28.09640 | 35974 ft | 477 kts | 328° |
| 2026-04-24 02:22 | 41.65064 | 28.04874 | 35970 ft | 475 kts | 328° |
| 2026-04-24 02:23 | 41.70638 | 28.00105 | 35975 ft | 475 kts | 328° |
| 2026-04-24 02:23 | 41.76197 | 27.95340 | 35975 ft | 474 kts | 328° |
| 2026-04-24 02:24 | 41.81752 | 27.90569 | 35971 ft | 473 kts | 328° |
| 2026-04-24 02:24 | 41.87293 | 27.85800 | 35970 ft | 473 kts | 328° |
| 2026-04-24 02:25 | 41.92790 | 27.81059 | 35969 ft | 472 kts | 328° |
| 2026-04-24 02:25 | 41.98023 | 27.75732 | 35967 ft | 473 kts | 318° |
| 2026-04-24 02:26 | 42.01947 | 27.70603 | 35970 ft | 473 kts | 316° |
| 2026-04-24 02:26 | 42.06558 | 27.64272 | 35972 ft | 473 kts | 315° |
| 2026-04-24 02:27 | 42.11141 | 27.57920 | 35972 ft | 473 kts | 315° |
| 2026-04-24 02:27 | 42.15745 | 27.51560 | 35970 ft | 473 kts | 315° |
| 2026-04-24 02:28 | 42.20344 | 27.45218 | 35968 ft | 473 kts | 316° |
| 2026-04-24 02:28 | 42.24934 | 27.38879 | 35972 ft | 472 kts | 315° |
| 2026-04-24 02:29 | 42.29440 | 27.32641 | 35966 ft | 472 kts | 315° |
| 2026-04-24 02:29 | 42.34014 | 27.26293 | 35962 ft | 471 kts | 316° |
| 2026-04-24 02:30 | 42.38551 | 27.19984 | 35963 ft | 471 kts | 315° |
| 2026-04-24 02:30 | 42.43116 | 27.13621 | 35965 ft | 470 kts | 315° |
| 2026-04-24 02:31 | 42.47666 | 27.07265 | 35968 ft | 470 kts | 315° |
| 2026-04-24 02:31 | 42.52216 | 27.00896 | 35966 ft | 470 kts | 315° |
| 2026-04-24 02:32 | 42.56756 | 26.94523 | 35969 ft | 469 kts | 315° |
| 2026-04-24 02:32 | 42.61272 | 26.88173 | 35961 ft | 469 kts | 315° |
| 2026-04-24 02:33 | 42.65803 | 26.81788 | 35955 ft | 469 kts | 315° |
| 2026-04-24 02:33 | 42.70337 | 26.75383 | 35957 ft | 469 kts | 315° |
| 2026-04-24 02:34 | 42.74858 | 26.68982 | 35959 ft | 469 kts | 315° |
| 2026-04-24 02:34 | 42.79369 | 26.62552 | 35958 ft | 469 kts | 313° |
| 2026-04-24 02:35 | 42.83113 | 26.55312 | 35967 ft | 473 kts | 302° |
| 2026-04-24 02:35 | 42.86267 | 26.47435 | 35975 ft | 473 kts | 300° |
| 2026-04-24 02:36 | 42.89307 | 26.39470 | 35967 ft | 473 kts | 299° |
| 2026-04-24 02:36 | 42.92353 | 26.31485 | 35963 ft | 474 kts | 300° |
| 2026-04-24 02:37 | 42.95408 | 26.23513 | 35974 ft | 474 kts | 300° |
| 2026-04-24 02:37 | 42.98449 | 26.15586 | 35975 ft | 473 kts | 300° |
| 2026-04-24 02:38 | 43.01504 | 26.07605 | 35971 ft | 474 kts | 300° |
| 2026-04-24 02:38 | 43.04552 | 25.99619 | 35972 ft | 474 kts | 300° |
| 2026-04-24 02:39 | 43.07595 | 25.91618 | 35968 ft | 474 kts | 300° |
| 2026-04-24 02:39 | 43.10638 | 25.83599 | 35966 ft | 475 kts | 300° |
| 2026-04-24 02:40 | 43.13674 | 25.75572 | 35965 ft | 475 kts | 300° |
| 2026-04-24 02:40 | 43.17109 | 25.67878 | 35967 ft | 473 kts | 307° |
| 2026-04-24 02:41 | 43.20911 | 25.60598 | 35965 ft | 473 kts | 308° |
| 2026-04-24 02:41 | 43.24796 | 25.53329 | 35969 ft | 473 kts | 308° |
| 2026-04-24 02:42 | 43.28678 | 25.46043 | 35970 ft | 473 kts | 308° |
| 2026-04-24 02:42 | 43.32544 | 25.38739 | 35973 ft | 473 kts | 308° |
| 2026-04-24 02:43 | 43.36400 | 25.31417 | 35969 ft | 473 kts | 308° |
| 2026-04-24 02:43 | 43.40254 | 25.24082 | 35970 ft | 473 kts | 308° |
| 2026-04-24 02:44 | 43.44097 | 25.16751 | 35972 ft | 473 kts | 308° |
| 2026-04-24 02:44 | 43.47942 | 25.09398 | 35971 ft | 473 kts | 308° |
| 2026-04-24 02:45 | 43.51780 | 25.02041 | 35970 ft | 473 kts | 308° |
| 2026-04-24 02:45 | 43.55589 | 24.94720 | 35967 ft | 472 kts | 308° |
| 2026-04-24 02:46 | 43.59416 | 24.87346 | 35972 ft | 472 kts | 308° |
| 2026-04-24 02:46 | 43.63236 | 24.79968 | 35974 ft | 472 kts | 308° |
| 2026-04-24 02:47 | 43.67050 | 24.72583 | 35971 ft | 472 kts | 308° |
| 2026-04-24 02:47 | 43.70860 | 24.65188 | 35974 ft | 472 kts | 308° |
| 2026-04-24 02:48 | 43.74662 | 24.57790 | 35973 ft | 472 kts | 308° |
| 2026-04-24 02:48 | 43.78504 | 24.50426 | 35976 ft | 471 kts | 309° |
| 2026-04-24 02:49 | 43.82451 | 24.43185 | 35975 ft | 471 kts | 310° |
| 2026-04-24 02:49 | 43.86376 | 24.35999 | 35979 ft | 471 kts | 310° |
| 2026-04-24 02:50 | 43.90307 | 24.28730 | 35976 ft | 471 kts | 310° |
| 2026-04-24 02:50 | 43.94227 | 24.21431 | 35975 ft | 470 kts | 309° |
| 2026-04-24 02:51 | 43.98124 | 24.14149 | 35978 ft | 470 kts | 309° |
| 2026-04-24 02:51 | 44.02022 | 24.06850 | 35973 ft | 470 kts | 309° |
| 2026-04-24 02:52 | 44.05889 | 23.99590 | 35965 ft | 470 kts | 309° |
| 2026-04-24 02:52 | 44.09772 | 23.92284 | 35958 ft | 470 kts | 310° |
| 2026-04-24 02:53 | 44.13657 | 23.84957 | 35954 ft | 470 kts | 310° |
| 2026-04-24 02:53 | 44.17535 | 23.77623 | 35949 ft | 470 kts | 310° |
| 2026-04-24 02:54 | 44.21402 | 23.70292 | 35950 ft | 470 kts | 310° |
| 2026-04-24 02:54 | 44.25267 | 23.62945 | 35954 ft | 470 kts | 310° |
| 2026-04-24 02:55 | 44.29123 | 23.55598 | 35962 ft | 469 kts | 310° |
| 2026-04-24 02:55 | 44.32976 | 23.48236 | 35968 ft | 469 kts | 310° |
| 2026-04-24 02:56 | 44.36791 | 23.40930 | 35973 ft | 469 kts | 310° |
| 2026-04-24 02:56 | 44.40631 | 23.33557 | 35978 ft | 468 kts | 310° |
| 2026-04-24 02:57 | 44.44463 | 23.26181 | 35982 ft | 468 kts | 310° |
| 2026-04-24 02:57 | 44.48284 | 23.18805 | 35979 ft | 468 kts | 310° |
| 2026-04-24 02:58 | 44.52102 | 23.11417 | 35979 ft | 468 kts | 310° |
| 2026-04-24 02:58 | 44.55898 | 23.04054 | 35981 ft | 468 kts | 310° |
| 2026-04-24 02:59 | 44.59707 | 22.96648 | 35977 ft | 468 kts | 310° |
| 2026-04-24 02:59 | 44.63515 | 22.89223 | 35976 ft | 468 kts | 309° |
| 2026-04-24 03:00 | 44.67316 | 22.81791 | 35989 ft | 468 kts | 310° |
| 2026-04-24 03:00 | 44.71110 | 22.74356 | 35994 ft | 468 kts | 310° |
| 2026-04-24 03:01 | 44.74896 | 22.66919 | 35999 ft | 468 kts | 310° |
| 2026-04-24 03:01 | 44.78683 | 22.59469 | 36000 ft | 467 kts | 310° |
| 2026-04-24 03:02 | 44.82687 | 22.52301 | 36001 ft | 465 kts | 314° |
| 2026-04-24 03:02 | 44.86823 | 22.45292 | 36007 ft | 464 kts | 314° |
| 2026-04-24 03:03 | 44.90926 | 22.38253 | 36014 ft | 464 kts | 313° |
| 2026-04-24 03:03 | 44.94964 | 22.31204 | 36015 ft | 464 kts | 313° |
| 2026-04-24 03:04 | 44.98998 | 22.24107 | 36012 ft | 463 kts | 313° |
| 2026-04-24 03:04 | 45.03023 | 22.17003 | 36028 ft | 462 kts | 313° |
| 2026-04-24 03:05 | 45.07039 | 22.09903 | 36027 ft | 463 kts | 313° |
| 2026-04-24 03:05 | 45.11058 | 22.02783 | 36023 ft | 463 kts | 313° |
| 2026-04-24 03:06 | 45.15076 | 21.95647 | 36023 ft | 463 kts | 313° |
| 2026-04-24 03:06 | 45.19091 | 21.88494 | 36034 ft | 464 kts | 313° |
| 2026-04-24 03:07 | 45.23107 | 21.81323 | 36031 ft | 464 kts | 313° |
| 2026-04-24 03:07 | 45.27122 | 21.74136 | 36025 ft | 464 kts | 313° |
| 2026-04-24 03:08 | 45.33107 | 21.63391 | 36020 ft | 465 kts | 313° |
| 2026-04-24 03:09 | 45.37113 | 21.56174 | 36018 ft | 465 kts | 313° |
| 2026-04-24 03:09 | 45.41121 | 21.48938 | 36022 ft | 465 kts | 313° |
| 2026-04-24 03:10 | 45.45123 | 21.41692 | 36023 ft | 465 kts | 313° |
| 2026-04-24 03:10 | 45.49116 | 21.34444 | 36023 ft | 465 kts | 313° |
| 2026-04-24 03:11 | 45.53117 | 21.27163 | 36023 ft | 466 kts | 313° |
| 2026-04-24 03:11 | 45.57106 | 21.19884 | 36013 ft | 466 kts | 313° |
| 2026-04-24 03:12 | 45.61073 | 21.12627 | 36011 ft | 466 kts | 312° |
| 2026-04-24 03:12 | 45.65060 | 21.05316 | 36007 ft | 466 kts | 312° |
| 2026-04-24 03:13 | 45.69042 | 20.97993 | 36006 ft | 466 kts | 312° |
| 2026-04-24 03:13 | 45.73023 | 20.90655 | 36021 ft | 467 kts | 312° |
| 2026-04-24 03:14 | 45.76995 | 20.83313 | 36023 ft | 467 kts | 312° |
| 2026-04-24 03:14 | 45.80950 | 20.75984 | 36027 ft | 467 kts | 312° |
| 2026-04-24 03:15 | 45.84918 | 20.68611 | 36025 ft | 467 kts | 312° |
| 2026-04-24 03:15 | 45.88242 | 20.62419 | 36027 ft | 467 kts | 312° |
| 2026-04-24 03:16 | 45.92185 | 20.55058 | 36022 ft | 467 kts | 312° |
| 2026-04-24 03:16 | 45.96139 | 20.47656 | 36023 ft | 467 kts | 312° |
| 2026-04-24 03:17 | 46.00099 | 20.40224 | 36028 ft | 468 kts | 312° |
| 2026-04-24 03:17 | 46.04056 | 20.32777 | 36026 ft | 468 kts | 312° |
| 2026-04-24 03:18 | 46.08009 | 20.25319 | 36028 ft | 468 kts | 312° |
| 2026-04-24 03:18 | 46.11946 | 20.17871 | 36030 ft | 468 kts | 312° |
| 2026-04-24 03:19 | 46.15887 | 20.10395 | 36259 ft | 466 kts | 312° |
| 2026-04-24 03:19 | 46.17819 | 20.06661 | 36592 ft | 464 kts | 311° |
| 2026-04-24 03:19 | 46.19648 | 20.02820 | 36862 ft | 464 kts | 309° |
| 2026-04-24 03:19 | 46.21406 | 19.98916 | 37085 ft | 464 kts | 308° |
| 2026-04-24 03:20 | 46.23139 | 19.94983 | 37276 ft | 464 kts | 308° |
| 2026-04-24 03:20 | 46.24873 | 19.91047 | 37478 ft | 464 kts | 308° |
| 2026-04-24 03:20 | 46.26594 | 19.87174 | 37655 ft | 463 kts | 308° |
| 2026-04-24 03:20 | 46.28368 | 19.83216 | 37851 ft | 463 kts | 308° |
| 2026-04-24 03:21 | 46.30103 | 19.79373 | 38014 ft | 463 kts | 308° |
| 2026-04-24 03:21 | 46.33662 | 19.71523 | 38045 ft | 469 kts | 308° |
| 2026-04-24 03:22 | 46.37238 | 19.63623 | 38047 ft | 468 kts | 308° |
| 2026-04-24 03:22 | 46.40803 | 19.55715 | 38054 ft | 468 kts | 308° |
| 2026-04-24 03:23 | 46.44362 | 19.47794 | 38053 ft | 468 kts | 308° |
| 2026-04-24 03:23 | 46.47894 | 19.39913 | 38055 ft | 468 kts | 308° |
| 2026-04-24 03:24 | 46.51439 | 19.31980 | 38053 ft | 468 kts | 308° |
| 2026-04-24 03:24 | 46.54980 | 19.24032 | 38056 ft | 468 kts | 308° |
| 2026-04-24 03:25 | 46.58520 | 19.16065 | 38058 ft | 468 kts | 308° |
| 2026-04-24 03:25 | 46.62048 | 19.08102 | 38055 ft | 469 kts | 308° |
| 2026-04-24 03:26 | 46.65572 | 19.00123 | 38064 ft | 469 kts | 308° |
| 2026-04-24 03:26 | 46.69096 | 18.92123 | 38071 ft | 469 kts | 308° |
| 2026-04-24 03:27 | 46.72589 | 18.84170 | 38061 ft | 469 kts | 308° |
| 2026-04-24 03:27 | 46.76121 | 18.76106 | 38062 ft | 469 kts | 308° |
| 2026-04-24 03:28 | 46.79604 | 18.68129 | 38064 ft | 469 kts | 308° |
| 2026-04-24 03:28 | 46.83105 | 18.60088 | 38068 ft | 469 kts | 308° |
| 2026-04-24 03:29 | 46.86597 | 18.52044 | 38068 ft | 469 kts | 308° |
| 2026-04-24 03:29 | 46.90086 | 18.43985 | 38068 ft | 469 kts | 308° |
| 2026-04-24 03:30 | 46.93569 | 18.35914 | 38063 ft | 469 kts | 308° |
| 2026-04-24 03:30 | 46.97043 | 18.27843 | 38080 ft | 469 kts | 308° |
| 2026-04-24 03:31 | 47.00497 | 18.19794 | 38075 ft | 469 kts | 308° |
| 2026-04-24 03:31 | 47.03966 | 18.11687 | 38076 ft | 469 kts | 308° |
| 2026-04-24 03:32 | 47.07427 | 18.03573 | 38082 ft | 469 kts | 308° |
| 2026-04-24 03:32 | 47.10884 | 17.95445 | 38086 ft | 469 kts | 308° |
| 2026-04-24 03:33 | 47.14335 | 17.87306 | 38091 ft | 469 kts | 308° |
| 2026-04-24 03:33 | 47.17781 | 17.79157 | 38096 ft | 469 kts | 308° |
| 2026-04-24 03:34 | 47.21225 | 17.70986 | 38100 ft | 469 kts | 308° |
| 2026-04-24 03:34 | 47.24662 | 17.62809 | 38102 ft | 469 kts | 308° |
| 2026-04-24 03:35 | 47.28068 | 17.54679 | 38096 ft | 469 kts | 308° |
| 2026-04-24 03:35 | 47.31487 | 17.46496 | 38107 ft | 469 kts | 308° |
| 2026-04-24 03:36 | 47.34898 | 17.38309 | 38101 ft | 468 kts | 308° |
| 2026-04-24 03:36 | 47.38298 | 17.30122 | 38099 ft | 468 kts | 308° |
| 2026-04-24 03:37 | 47.41698 | 17.21911 | 38103 ft | 468 kts | 308° |
| 2026-04-24 03:37 | 47.45086 | 17.13705 | 38097 ft | 468 kts | 308° |
| 2026-04-24 03:38 | 47.48471 | 17.05478 | 38105 ft | 468 kts | 308° |
| 2026-04-24 03:38 | 47.51847 | 16.97252 | 38108 ft | 468 kts | 307° |
| 2026-04-24 03:39 | 47.55219 | 16.89009 | 38107 ft | 468 kts | 307° |
| 2026-04-24 03:39 | 47.58584 | 16.80756 | 38111 ft | 468 kts | 307° |
| 2026-04-24 03:40 | 47.62058 | 16.72706 | 38116 ft | 465 kts | 310° |
| 2026-04-24 03:40 | 47.65744 | 16.64864 | 38117 ft | 464 kts | 311° |
| 2026-04-24 03:41 | 47.69432 | 16.57008 | 38117 ft | 464 kts | 311° |
| 2026-04-24 03:41 | 47.73052 | 16.49143 | 38118 ft | 464 kts | 310° |
| 2026-04-24 03:42 | 47.76695 | 16.41137 | 38126 ft | 464 kts | 310° |
| 2026-04-24 03:42 | 47.80308 | 16.33163 | 38123 ft | 465 kts | 310° |
| 2026-04-24 03:43 | 47.83913 | 16.25188 | 38127 ft | 465 kts | 310° |
| 2026-04-24 03:43 | 47.87499 | 16.17237 | 38135 ft | 465 kts | 310° |
| 2026-04-24 03:44 | 47.91100 | 16.09229 | 38142 ft | 465 kts | 310° |
| 2026-04-24 03:44 | 47.94693 | 16.01217 | 38137 ft | 465 kts | 310° |
| 2026-04-24 03:45 | 47.98288 | 15.93177 | 38137 ft | 465 kts | 309° |
| 2026-04-24 03:45 | 48.01875 | 15.85125 | 38148 ft | 465 kts | 309° |
| 2026-04-24 03:46 | 48.05458 | 15.77065 | 38151 ft | 466 kts | 309° |
| 2026-04-24 03:46 | 48.09035 | 15.68995 | 38162 ft | 466 kts | 309° |
| 2026-04-24 03:47 | 48.12588 | 15.60952 | 38161 ft | 466 kts | 309° |
| 2026-04-24 03:47 | 48.16177 | 15.52804 | 38163 ft | 466 kts | 309° |
| 2026-04-24 03:48 | 48.19718 | 15.44742 | 38164 ft | 466 kts | 309° |
| 2026-04-24 03:48 | 48.23272 | 15.36628 | 38177 ft | 466 kts | 309° |
| 2026-04-24 03:49 | 48.26826 | 15.28485 | 38179 ft | 466 kts | 309° |
| 2026-04-24 03:49 | 48.30375 | 15.20331 | 38181 ft | 466 kts | 308° |
| 2026-04-24 03:50 | 48.33916 | 15.12170 | 38181 ft | 467 kts | 308° |
| 2026-04-24 03:50 | 48.37436 | 15.04036 | 38186 ft | 467 kts | 308° |
| 2026-04-24 03:51 | 48.40992 | 14.95788 | 38188 ft | 467 kts | 308° |
| 2026-04-24 03:51 | 48.44502 | 14.87625 | 38189 ft | 467 kts | 308° |
| 2026-04-24 03:52 | 48.48029 | 14.79397 | 38190 ft | 467 kts | 308° |
| 2026-04-24 03:52 | 48.51552 | 14.71153 | 38195 ft | 467 kts | 308° |
| 2026-04-24 03:53 | 48.55069 | 14.62899 | 38194 ft | 467 kts | 308° |
| 2026-04-24 03:53 | 48.58582 | 14.54629 | 38194 ft | 468 kts | 308° |
| 2026-04-24 03:54 | 48.62068 | 14.46397 | 38197 ft | 468 kts | 308° |
| 2026-04-24 03:54 | 48.65575 | 14.38090 | 38195 ft | 468 kts | 307° |
| 2026-04-24 03:55 | 48.69076 | 14.29774 | 38199 ft | 469 kts | 307° |
| 2026-04-24 03:55 | 48.72572 | 14.21440 | 38195 ft | 469 kts | 307° |
| 2026-04-24 03:56 | 48.76072 | 14.13072 | 38198 ft | 469 kts | 307° |
| 2026-04-24 03:56 | 48.79562 | 14.04702 | 38198 ft | 469 kts | 307° |
| 2026-04-24 03:57 | 48.83045 | 13.96323 | 38205 ft | 470 kts | 307° |
| 2026-04-24 03:57 | 48.86510 | 13.87962 | 38199 ft | 470 kts | 307° |
| 2026-04-24 03:58 | 48.89992 | 13.79531 | 38200 ft | 470 kts | 307° |
| 2026-04-24 03:58 | 48.93468 | 13.71089 | 38205 ft | 471 kts | 306° |
| 2026-04-24 03:59 | 48.96940 | 13.62630 | 38208 ft | 471 kts | 306° |
| 2026-04-24 03:59 | 49.00408 | 13.54154 | 38206 ft | 471 kts | 306° |
| 2026-04-24 04:00 | 49.03780 | 13.45563 | 38206 ft | 474 kts | 303° |
| 2026-04-24 04:00 | 49.06798 | 13.36617 | 38198 ft | 475 kts | 301° |
| 2026-04-24 04:01 | 49.09754 | 13.27583 | 38197 ft | 476 kts | 301° |
| 2026-04-24 04:01 | 49.12243 | 13.20116 | 38202 ft | 475 kts | 301° |
| 2026-04-24 04:02 | 49.15772 | 13.09679 | 38214 ft | 476 kts | 301° |
| 2026-04-24 04:02 | 49.18303 | 13.02204 | 38204 ft | 475 kts | 301° |
| 2026-04-24 04:03 | 49.21334 | 12.93225 | 38201 ft | 476 kts | 301° |
| 2026-04-24 04:03 | 49.24362 | 12.84216 | 38204 ft | 476 kts | 301° |
| 2026-04-24 04:04 | 49.27382 | 12.75192 | 38205 ft | 476 kts | 301° |
| 2026-04-24 04:04 | 49.30396 | 12.66153 | 38209 ft | 476 kts | 301° |
| 2026-04-24 04:05 | 49.33399 | 12.57114 | 38206 ft | 476 kts | 301° |
| 2026-04-24 04:05 | 49.36398 | 12.48057 | 38206 ft | 476 kts | 301° |
| 2026-04-24 04:06 | 49.39388 | 12.38992 | 38206 ft | 476 kts | 300° |
| 2026-04-24 04:06 | 49.42373 | 12.29916 | 38217 ft | 476 kts | 300° |
| 2026-04-24 04:07 | 49.45338 | 12.20866 | 38197 ft | 477 kts | 300° |
| 2026-04-24 04:07 | 49.48315 | 12.11743 | 38194 ft | 477 kts | 300° |
| 2026-04-24 04:08 | 49.51284 | 12.02612 | 38187 ft | 478 kts | 300° |
| 2026-04-24 04:08 | 49.54249 | 11.93460 | 38185 ft | 478 kts | 300° |
| 2026-04-24 04:09 | 49.57215 | 11.84273 | 38182 ft | 479 kts | 300° |
| 2026-04-24 04:09 | 49.60173 | 11.75077 | 38209 ft | 479 kts | 299° |
| 2026-04-24 04:10 | 49.63133 | 11.65843 | 38198 ft | 480 kts | 299° |
| 2026-04-24 04:10 | 49.66022 | 11.56793 | 38192 ft | 480 kts | 299° |
| 2026-04-24 04:11 | 49.70427 | 11.42934 | 38222 ft | 481 kts | 298° |
| 2026-04-24 04:11 | 49.73368 | 11.33638 | 38210 ft | 482 kts | 298° |
| 2026-04-24 04:12 | 49.76436 | 11.24455 | 38209 ft | 480 kts | 304° |
| 2026-04-24 04:12 | 49.80587 | 11.16449 | 38217 ft | 476 kts | 315° |
| 2026-04-24 04:13 | 49.85144 | 11.09007 | 38220 ft | 476 kts | 316° |
| 2026-04-24 04:13 | 49.89777 | 11.01653 | 38224 ft | 477 kts | 316° |
| 2026-04-24 04:14 | 49.94398 | 10.94254 | 38224 ft | 477 kts | 316° |
| 2026-04-24 04:14 | 49.98994 | 10.86810 | 38234 ft | 478 kts | 316° |
| 2026-04-24 04:15 | 50.03587 | 10.79329 | 38250 ft | 478 kts | 315° |
| 2026-04-24 04:15 | 50.08176 | 10.71836 | 38233 ft | 479 kts | 315° |
| 2026-04-24 04:16 | 50.12781 | 10.64311 | 38230 ft | 479 kts | 315° |
| 2026-04-24 04:16 | 50.17377 | 10.56771 | 38231 ft | 480 kts | 315° |
| 2026-04-24 04:17 | 50.21943 | 10.49258 | 38231 ft | 480 kts | 315° |
| 2026-04-24 04:17 | 50.26567 | 10.41716 | 38231 ft | 481 kts | 316° |
| 2026-04-24 04:18 | 50.31241 | 10.34222 | 38234 ft | 481 kts | 316° |
| 2026-04-24 04:18 | 50.35913 | 10.26711 | 38236 ft | 482 kts | 315° |
| 2026-04-24 04:19 | 50.40373 | 10.18831 | 38241 ft | 483 kts | 313° |
| 2026-04-24 04:19 | 50.44963 | 10.11141 | 38244 ft | 483 kts | 315° |
| 2026-04-24 04:20 | 50.49533 | 10.03479 | 38244 ft | 484 kts | 314° |
| 2026-04-24 04:20 | 50.54087 | 9.95686 | 38247 ft | 484 kts | 314° |
| 2026-04-24 04:21 | 50.58521 | 9.87668 | 38247 ft | 485 kts | 311° |
| 2026-04-24 04:21 | 50.62783 | 9.79403 | 38247 ft | 486 kts | 310° |
| 2026-04-24 04:22 | 50.67050 | 9.71119 | 38250 ft | 487 kts | 311° |
| 2026-04-24 04:22 | 50.71349 | 9.62864 | 38245 ft | 487 kts | 311° |
| 2026-04-24 04:23 | 50.75646 | 9.54640 | 38249 ft | 488 kts | 311° |
| 2026-04-24 04:23 | 50.79967 | 9.46359 | 38249 ft | 489 kts | 311° |
| 2026-04-24 04:24 | 50.84286 | 9.38062 | 38221 ft | 484 kts | 309° |
| 2026-04-24 04:24 | 50.88502 | 9.29900 | 38243 ft | 476 kts | 309° |
| 2026-04-24 04:25 | 50.92700 | 9.21760 | 38245 ft | 476 kts | 309° |
| 2026-04-24 04:25 | 50.96865 | 9.13690 | 38242 ft | 476 kts | 309° |
| 2026-04-24 04:26 | 51.01055 | 9.05538 | 38244 ft | 476 kts | 309° |
| 2026-04-24 04:26 | 51.05239 | 8.97367 | 38246 ft | 476 kts | 309° |
| 2026-04-24 04:27 | 51.09412 | 8.89185 | 38246 ft | 476 kts | 309° |
| 2026-04-24 04:27 | 51.13560 | 8.81028 | 38255 ft | 476 kts | 308° |
| 2026-04-24 04:28 | 51.17722 | 8.72826 | 38265 ft | 476 kts | 308° |
| 2026-04-24 04:28 | 51.21874 | 8.64593 | 38270 ft | 476 kts | 308° |
| 2026-04-24 04:29 | 51.26011 | 8.56339 | 38276 ft | 476 kts | 308° |
| 2026-04-24 04:29 | 51.30140 | 8.48074 | 38276 ft | 476 kts | 308° |
| 2026-04-24 04:30 | 51.34298 | 8.39803 | 38282 ft | 476 kts | 308° |
| 2026-04-24 04:30 | 51.38449 | 8.31591 | 38282 ft | 477 kts | 308° |
| 2026-04-24 04:31 | 51.42612 | 8.23305 | 38287 ft | 477 kts | 308° |
| 2026-04-24 04:31 | 51.46772 | 8.15005 | 38289 ft | 478 kts | 308° |
| 2026-04-24 04:32 | 51.50933 | 8.06676 | 38297 ft | 478 kts | 308° |
| 2026-04-24 04:32 | 51.55084 | 7.98330 | 38296 ft | 478 kts | 307° |
| 2026-04-24 04:33 | 51.59234 | 7.89956 | 38295 ft | 479 kts | 307° |
| 2026-04-24 04:33 | 51.63383 | 7.81556 | 38299 ft | 479 kts | 307° |
| 2026-04-24 04:34 | 51.67498 | 7.73200 | 38295 ft | 479 kts | 307° |
| 2026-04-24 04:34 | 51.71640 | 7.64760 | 38299 ft | 480 kts | 307° |
| 2026-04-24 04:35 | 51.75769 | 7.56321 | 38301 ft | 480 kts | 307° |
| 2026-04-24 04:35 | 51.79901 | 7.47846 | 38309 ft | 480 kts | 307° |
| 2026-04-24 04:36 | 51.84035 | 7.39341 | 38310 ft | 480 kts | 306° |
| 2026-04-24 04:36 | 51.88158 | 7.30828 | 38311 ft | 480 kts | 306° |
| 2026-04-24 04:37 | 51.92270 | 7.22312 | 38315 ft | 481 kts | 306° |
| 2026-04-24 04:37 | 51.96385 | 7.13757 | 38310 ft | 481 kts | 306° |
| 2026-04-24 04:38 | 52.00491 | 7.05196 | 38311 ft | 481 kts | 306° |
| 2026-04-24 04:38 | 52.04574 | 6.96654 | 38312 ft | 481 kts | 306° |
| 2026-04-24 04:39 | 52.08673 | 6.88049 | 38310 ft | 481 kts | 306° |
| 2026-04-24 04:39 | 52.12436 | 6.79078 | 38314 ft | 479 kts | 295° |
| 2026-04-24 04:40 | 52.15025 | 6.69143 | 38312 ft | 476 kts | 288° |
| 2026-04-24 04:40 | 52.17281 | 6.58999 | 38313 ft | 476 kts | 287° |
| 2026-04-24 04:41 | 52.19475 | 6.48812 | 38314 ft | 477 kts | 287° |
| 2026-04-24 04:41 | 52.21686 | 6.38624 | 38316 ft | 477 kts | 287° |
| 2026-04-24 04:42 | 52.23912 | 6.28423 | 38313 ft | 477 kts | 287° |
| 2026-04-24 04:42 | 52.26143 | 6.18198 | 38313 ft | 478 kts | 287° |
| 2026-04-24 04:43 | 52.28359 | 6.07965 | 38313 ft | 478 kts | 287° |
| 2026-04-24 04:43 | 52.30566 | 5.97710 | 38317 ft | 478 kts | 287° |
| 2026-04-24 04:44 | 52.32766 | 5.87443 | 38320 ft | 479 kts | 286° |
| 2026-04-24 04:44 | 52.34948 | 5.77211 | 38317 ft | 479 kts | 286° |
| 2026-04-24 04:45 | 52.37138 | 5.66890 | 38320 ft | 480 kts | 286° |
| 2026-04-24 04:45 | 52.39322 | 5.56559 | 38318 ft | 480 kts | 286° |
| 2026-04-24 04:46 | 52.41496 | 5.46216 | 38321 ft | 481 kts | 285° |
| 2026-04-24 04:46 | 52.43661 | 5.35835 | 38320 ft | 481 kts | 285° |
| 2026-04-24 04:47 | 52.45807 | 5.25500 | 38322 ft | 481 kts | 285° |
| 2026-04-24 04:47 | 52.47960 | 5.15086 | 38325 ft | 482 kts | 285° |
| 2026-04-24 04:48 | 52.50088 | 5.04736 | 38343 ft | 482 kts | 285° |
| 2026-04-24 04:48 | 52.52220 | 4.94271 | 38383 ft | 488 kts | 287° |
| 2026-04-24 04:49 | 52.54845 | 4.83892 | 38342 ft | 498 kts | 300° |
| 2026-04-24 04:49 | 52.58637 | 4.74263 | 38347 ft | 506 kts | 304° |
| 2026-04-24 04:50 | 52.62709 | 4.64703 | 38347 ft | 514 kts | 305° |
| 2026-04-24 04:50 | 52.66153 | 4.56675 | 38350 ft | 515 kts | 305° |
| 2026-04-24 04:51 | 52.70257 | 4.46993 | 38347 ft | 515 kts | 305° |
| 2026-04-24 04:51 | 52.74308 | 4.37257 | 38349 ft | 515 kts | 302° |
| 2026-04-24 04:52 | 52.77918 | 4.27058 | 38361 ft | 514 kts | 299° |
| 2026-04-24 04:52 | 52.81403 | 4.16791 | 38364 ft | 514 kts | 299° |
| 2026-04-24 04:53 | 52.84871 | 4.06466 | 38369 ft | 513 kts | 298° |
| 2026-04-24 04:53 | 52.88328 | 3.96155 | 38371 ft | 513 kts | 298° |
| 2026-04-24 04:54 | 52.91790 | 3.85807 | 38367 ft | 512 kts | 298° |
| 2026-04-24 04:54 | 52.95241 | 3.75453 | 38368 ft | 512 kts | 298° |
| 2026-04-24 04:55 | 52.98676 | 3.65115 | 38370 ft | 512 kts | 298° |
| 2026-04-24 04:55 | 53.02107 | 3.54752 | 38367 ft | 511 kts | 298° |
| 2026-04-24 04:56 | 53.05520 | 3.44384 | 38360 ft | 511 kts | 298° |
| 2026-04-24 04:56 | 53.08882 | 3.33962 | 38354 ft | 510 kts | 295° |
| 2026-04-24 04:57 | 53.11114 | 3.22872 | 38355 ft | 509 kts | 283° |
| 2026-04-24 04:57 | 53.12718 | 3.11401 | 38365 ft | 509 kts | 281° |
| 2026-04-24 04:58 | 53.14193 | 2.99862 | 38379 ft | 509 kts | 281° |
| 2026-04-24 04:58 | 53.15664 | 2.88321 | 38385 ft | 509 kts | 281° |
| 2026-04-24 04:59 | 53.17149 | 2.76788 | 38387 ft | 509 kts | 281° |
| 2026-04-24 04:59 | 53.18637 | 2.65217 | 38389 ft | 509 kts | 282° |
| 2026-04-24 05:00 | 53.20106 | 2.53729 | 38387 ft | 509 kts | 281° |
| 2026-04-24 05:00 | 53.21572 | 2.42226 | 38403 ft | 504 kts | 281° |
| 2026-04-24 05:01 | 53.22981 | 2.30716 | 38394 ft | 508 kts | 281° |
| 2026-04-24 05:01 | 53.24422 | 2.19140 | 38396 ft | 508 kts | 282° |
| 2026-04-24 05:02 | 53.25863 | 2.07594 | 38395 ft | 508 kts | 281° |
| 2026-04-24 05:02 | 53.27276 | 1.96118 | 38399 ft | 507 kts | 281° |
| 2026-04-24 05:03 | 53.28677 | 1.84575 | 38402 ft | 506 kts | 281° |
| 2026-04-24 05:03 | 53.30061 | 1.73062 | 38407 ft | 505 kts | 281° |
| 2026-04-24 05:04 | 53.31431 | 1.61563 | 38409 ft | 504 kts | 281° |
| 2026-04-24 05:04 | 53.32786 | 1.50108 | 38407 ft | 503 kts | 281° |
| 2026-04-24 05:05 | 53.34336 | 1.38686 | 38409 ft | 502 kts | 284° |
| 2026-04-24 05:05 | 53.36050 | 1.27351 | 38408 ft | 502 kts | 284° |
| 2026-04-24 05:06 | 53.37739 | 1.16020 | 38413 ft | 501 kts | 284° |
| 2026-04-24 05:06 | 53.39372 | 1.04700 | 38416 ft | 500 kts | 283° |
| 2026-04-24 05:07 | 53.40974 | 0.93371 | 38414 ft | 499 kts | 283° |
| 2026-04-24 05:07 | 53.42550 | 0.82132 | 38414 ft | 498 kts | 283° |
| 2026-04-24 05:08 | 53.44126 | 0.70818 | 38418 ft | 498 kts | 283° |
| 2026-04-24 05:08 | 53.45692 | 0.59504 | 38418 ft | 497 kts | 283° |
| 2026-04-24 05:09 | 53.47243 | 0.48210 | 38418 ft | 497 kts | 283° |
| 2026-04-24 05:09 | 53.48786 | 0.36883 | 38422 ft | 496 kts | 282° |
| 2026-04-24 05:10 | 53.50295 | 0.25589 | 38421 ft | 495 kts | 283° |
| 2026-04-24 05:10 | 53.51815 | 0.14325 | 38422 ft | 494 kts | 283° |
| 2026-04-24 05:11 | 53.53329 | 0.03058 | 38425 ft | 493 kts | 283° |
| 2026-04-24 05:11 | 53.54793 | -0.08127 | 38426 ft | 493 kts | 282° |
| 2026-04-24 05:12 | 53.56274 | -0.19446 | 38428 ft | 492 kts | 283° |
| 2026-04-24 05:12 | 53.57735 | -0.30603 | 38426 ft | 491 kts | 282° |
| 2026-04-24 05:13 | 53.59888 | -0.47472 | 38429 ft | 491 kts | 283° |
| 2026-04-24 05:14 | 53.61328 | -0.58702 | 38427 ft | 490 kts | 282° |
| 2026-04-24 05:14 | 53.62746 | -0.69943 | 38421 ft | 490 kts | 283° |
| 2026-04-24 05:15 | 53.64161 | -0.81162 | 38417 ft | 489 kts | 282° |
| 2026-04-24 05:15 | 53.65538 | -0.92306 | 38417 ft | 488 kts | 282° |
| 2026-04-24 05:16 | 53.66929 | -1.03493 | 38416 ft | 487 kts | 282° |
| 2026-04-24 05:16 | 53.68310 | -1.14678 | 38414 ft | 486 kts | 282° |
| 2026-04-24 05:17 | 53.69668 | -1.25853 | 38410 ft | 486 kts | 282° |
| 2026-04-24 05:17 | 53.71014 | -1.37015 | 38408 ft | 485 kts | 282° |
| 2026-04-24 05:18 | 53.72351 | -1.48173 | 38404 ft | 484 kts | 282° |
| 2026-04-24 05:18 | 53.73674 | -1.59331 | 38401 ft | 484 kts | 282° |
| 2026-04-24 05:19 | 53.74926 | -1.70487 | 38401 ft | 483 kts | 281° |
| 2026-04-24 05:19 | 53.76112 | -1.81645 | 38402 ft | 483 kts | 281° |
| 2026-04-24 05:20 | 53.77291 | -1.92751 | 38405 ft | 482 kts | 281° |
| 2026-04-24 05:20 | 53.78476 | -2.03908 | 38405 ft | 482 kts | 281° |
| 2026-04-24 05:21 | 53.79655 | -2.15071 | 38400 ft | 481 kts | 281° |
| 2026-04-24 05:21 | 53.80822 | -2.26214 | 38401 ft | 481 kts | 281° |
| 2026-04-24 05:22 | 53.81979 | -2.37372 | 38397 ft | 480 kts | 281° |
| 2026-04-24 05:22 | 53.83121 | -2.48494 | 38393 ft | 480 kts | 281° |
| 2026-04-24 05:23 | 53.84255 | -2.59631 | 38393 ft | 479 kts | 281° |
| 2026-04-24 05:23 | 53.85374 | -2.70744 | 38390 ft | 478 kts | 281° |
| 2026-04-24 05:24 | 53.86482 | -2.81855 | 38385 ft | 478 kts | 280° |
| 2026-04-24 05:24 | 53.87572 | -2.92894 | 38386 ft | 477 kts | 280° |
| 2026-04-24 05:25 | 53.88657 | -3.03985 | 38382 ft | 477 kts | 280° |
| 2026-04-24 05:25 | 53.89730 | -3.15069 | 38383 ft | 476 kts | 280° |
| 2026-04-24 05:26 | 53.90791 | -3.26140 | 38381 ft | 475 kts | 280° |
| 2026-04-24 05:26 | 53.91839 | -3.37187 | 38382 ft | 474 kts | 280° |
| 2026-04-24 05:27 | 53.92876 | -3.48229 | 38376 ft | 473 kts | 280° |
| 2026-04-24 05:27 | 53.93878 | -3.59243 | 38374 ft | 472 kts | 279° |
| 2026-04-24 05:28 | 53.94819 | -3.70219 | 38376 ft | 472 kts | 279° |
| 2026-04-24 05:28 | 53.95772 | -3.81263 | 38373 ft | 472 kts | 279° |
| 2026-04-24 05:29 | 53.96729 | -3.92308 | 38375 ft | 473 kts | 279° |
| 2026-04-24 05:29 | 53.97683 | -4.03367 | 38371 ft | 474 kts | 279° |
| 2026-04-24 05:30 | 53.98635 | -4.14501 | 38373 ft | 475 kts | 279° |
| 2026-04-24 05:30 | 53.99582 | -4.25617 | 38358 ft | 476 kts | 279° |
| 2026-04-24 05:31 | 54.00507 | -4.36781 | 38353 ft | 477 kts | 279° |
| 2026-04-24 05:31 | 54.01428 | -4.47959 | 38348 ft | 478 kts | 279° |
| 2026-04-24 05:32 | 54.02331 | -4.59108 | 38348 ft | 479 kts | 279° |
| 2026-04-24 05:32 | 54.03244 | -4.70333 | 38345 ft | 480 kts | 279° |
| 2026-04-24 05:33 | 54.04149 | -4.81608 | 38348 ft | 480 kts | 278° |
| 2026-04-24 05:33 | 54.05041 | -4.92868 | 38352 ft | 480 kts | 278° |
| 2026-04-24 05:34 | 54.06348 | -5.09804 | 38353 ft | 481 kts | 278° |
| 2026-04-24 05:34 | 54.07205 | -5.21102 | 38355 ft | 481 kts | 278° |
| 2026-04-24 05:35 | 54.08043 | -5.32339 | 38362 ft | 481 kts | 278° |
| 2026-04-24 05:35 | 54.08878 | -5.43680 | 38366 ft | 482 kts | 278° |
| 2026-04-24 05:36 | 54.09709 | -5.55006 | 38369 ft | 482 kts | 277° |
| 2026-04-24 05:36 | 54.10529 | -5.66364 | 38366 ft | 482 kts | 277° |
| 2026-04-24 05:37 | 54.11336 | -5.77717 | 38363 ft | 482 kts | 277° |
| 2026-04-24 05:37 | 54.12131 | -5.89065 | 38363 ft | 482 kts | 277° |
| 2026-04-24 05:38 | 54.12916 | -6.00417 | 38365 ft | 482 kts | 277° |
| 2026-04-24 05:38 | 54.13560 | -6.09866 | 38364 ft | 482 kts | 277° |
| 2026-04-24 05:39 | 54.14326 | -6.21231 | 38364 ft | 482 kts | 276° |
| 2026-04-24 05:39 | 54.15081 | -6.32604 | 38361 ft | 483 kts | 276° |
| 2026-04-24 05:40 | 54.15827 | -6.44005 | 38357 ft | 483 kts | 276° |
| 2026-04-24 05:40 | 54.16560 | -6.55387 | 38356 ft | 482 kts | 276° |
| 2026-04-24 05:41 | 54.17282 | -6.66759 | 38349 ft | 482 kts | 276° |
| 2026-04-24 05:41 | 54.17989 | -6.78061 | 38350 ft | 482 kts | 276° |
| 2026-04-24 05:42 | 54.18691 | -6.89468 | 38346 ft | 482 kts | 275° |
| 2026-04-24 05:42 | 54.19381 | -7.00849 | 38342 ft | 482 kts | 275° |
| 2026-04-24 05:43 | 54.20061 | -7.12253 | 38339 ft | 482 kts | 275° |
| 2026-04-24 05:43 | 54.20729 | -7.23648 | 38335 ft | 482 kts | 275° |
| 2026-04-24 05:44 | 54.21387 | -7.35047 | 38337 ft | 482 kts | 275° |
| 2026-04-24 05:44 | 54.22034 | -7.46451 | 38334 ft | 482 kts | 275° |
| 2026-04-24 05:45 | 54.22667 | -7.57790 | 38334 ft | 482 kts | 274° |
| 2026-04-24 05:45 | 54.23292 | -7.69193 | 38328 ft | 482 kts | 274° |
| 2026-04-24 05:46 | 54.23907 | -7.80621 | 38333 ft | 482 kts | 274° |
| 2026-04-24 05:46 | 54.24512 | -7.92053 | 38330 ft | 482 kts | 274° |
| 2026-04-24 05:47 | 54.25107 | -8.03499 | 38325 ft | 482 kts | 274° |
| 2026-04-24 05:47 | 54.25690 | -8.14935 | 38325 ft | 482 kts | 274° |
| 2026-04-24 05:48 | 54.26262 | -8.26371 | 38320 ft | 483 kts | 273° |
| 2026-04-24 05:48 | 54.26824 | -8.37820 | 38315 ft | 483 kts | 273° |
| 2026-04-24 05:49 | 54.27371 | -8.49199 | 38314 ft | 483 kts | 273° |
| 2026-04-24 05:49 | 54.28077 | -8.60632 | 38310 ft | 484 kts | 279° |
| 2026-04-24 05:50 | 54.29509 | -8.71905 | 38309 ft | 485 kts | 281° |
| 2026-04-24 05:50 | 54.31089 | -8.83146 | 38305 ft | 485 kts | 282° |
| 2026-04-24 05:51 | 54.32681 | -8.94399 | 38300 ft | 486 kts | 281° |
| 2026-04-24 05:51 | 54.34246 | -9.05664 | 38300 ft | 485 kts | 281° |
| 2026-04-24 05:52 | 54.35788 | -9.16929 | 38298 ft | 485 kts | 281° |
| 2026-04-24 05:52 | 54.37307 | -9.28132 | 38300 ft | 485 kts | 281° |
| 2026-04-24 05:53 | 54.38826 | -9.39416 | 38296 ft | 485 kts | 281° |
| 2026-04-24 05:53 | 54.40337 | -9.50725 | 38295 ft | 486 kts | 280° |
| 2026-04-24 05:54 | 54.41837 | -9.62038 | 38297 ft | 486 kts | 280° |
| 2026-04-24 05:54 | 54.43326 | -9.73355 | 38290 ft | 486 kts | 280° |
| 2026-04-24 05:55 | 54.44806 | -9.84686 | 38288 ft | 486 kts | 280° |
| 2026-04-24 05:55 | 54.46272 | -9.96002 | 38282 ft | 486 kts | 279° |
| 2026-04-24 05:56 | 54.47730 | -10.07355 | 38280 ft | 486 kts | 279° |
| 2026-04-24 05:56 | 54.49168 | -10.18636 | 38278 ft | 486 kts | 279° |
| 2026-04-24 05:57 | 54.50606 | -10.30007 | 38278 ft | 486 kts | 279° |
| 2026-04-24 05:57 | 54.52034 | -10.41397 | 38270 ft | 486 kts | 279° |
| 2026-04-24 05:58 | 54.53440 | -10.52696 | 38268 ft | 486 kts | 279° |
| 2026-04-24 05:58 | 54.54847 | -10.64101 | 38269 ft | 486 kts | 279° |
| 2026-04-24 05:59 | 54.56243 | -10.75514 | 38268 ft | 487 kts | 279° |
| 2026-04-24 05:59 | 54.57629 | -10.86933 | 38257 ft | 487 kts | 278° |
| 2026-04-24 06:00 | 54.59004 | -10.98365 | 38256 ft | 487 kts | 278° |
| 2026-04-24 06:00 | 54.60360 | -11.09739 | 38256 ft | 487 kts | 278° |
| 2026-04-24 06:01 | 54.61723 | -11.21264 | 38250 ft | 487 kts | 278° |
| 2026-04-24 06:01 | 54.63058 | -11.32648 | 38255 ft | 487 kts | 278° |
| 2026-04-24 06:02 | 54.64390 | -11.44110 | 38244 ft | 487 kts | 278° |
| 2026-04-24 06:02 | 54.65712 | -11.55593 | 38247 ft | 487 kts | 277° |
| 2026-04-24 06:03 | 54.67026 | -11.67095 | 38245 ft | 488 kts | 277° |
| 2026-04-24 06:03 | 54.68328 | -11.78606 | 38239 ft | 488 kts | 277° |
| 2026-04-24 06:04 | 54.69620 | -11.90124 | 38239 ft | 488 kts | 277° |
| 2026-04-24 06:04 | 54.70900 | -12.01648 | 38233 ft | 488 kts | 277° |
| 2026-04-24 06:05 | 54.72172 | -12.13197 | 38232 ft | 488 kts | 277° |
| 2026-04-24 06:05 | 54.73431 | -12.24749 | 38230 ft | 489 kts | 277° |
| 2026-04-24 06:06 | 54.74673 | -12.36242 | 38230 ft | 489 kts | 276° |
| 2026-04-24 06:06 | 54.75914 | -12.47833 | 38227 ft | 489 kts | 276° |
| 2026-04-24 06:07 | 54.77142 | -12.59418 | 38222 ft | 490 kts | 276° |
| 2026-04-24 06:07 | 54.78363 | -12.71041 | 38218 ft | 490 kts | 276° |
| 2026-04-24 06:08 | 54.79574 | -12.82690 | 38216 ft | 490 kts | 276° |
| 2026-04-24 06:08 | 54.80771 | -12.94313 | 38218 ft | 490 kts | 276° |
| 2026-04-24 06:09 | 54.81959 | -13.05968 | 38216 ft | 490 kts | 276° |
| 2026-04-24 06:09 | 54.83129 | -13.17559 | 38213 ft | 491 kts | 276° |
| 2026-04-24 06:10 | 54.84297 | -13.29244 | 38210 ft | 491 kts | 275° |
| 2026-04-24 06:11 | 54.86026 | -13.46772 | 38205 ft | 491 kts | 275° |
| 2026-04-24 06:11 | 54.87165 | -13.58465 | 38208 ft | 492 kts | 275° |
| 2026-04-24 06:12 | 54.88295 | -13.70196 | 38206 ft | 492 kts | 275° |
| 2026-04-24 06:12 | 54.89413 | -13.81926 | 38207 ft | 492 kts | 275° |
| 2026-04-24 06:13 | 54.90520 | -13.93662 | 38203 ft | 492 kts | 275° |
| 2026-04-24 06:13 | 54.91611 | -14.05347 | 38206 ft | 493 kts | 275° |
| 2026-04-24 06:14 | 54.92698 | -14.17129 | 38199 ft | 493 kts | 275° |
| 2026-04-24 06:14 | 54.93776 | -14.28928 | 38199 ft | 493 kts | 274° |
| 2026-04-24 06:15 | 54.94840 | -14.40720 | 38196 ft | 494 kts | 274° |
| 2026-04-24 06:15 | 54.95895 | -14.52533 | 38194 ft | 494 kts | 274° |
| 2026-04-24 06:16 | 54.96931 | -14.64279 | 38201 ft | 494 kts | 274° |
| 2026-04-24 06:16 | 54.97963 | -14.76115 | 38192 ft | 495 kts | 274° |
| 2026-04-24 06:17 | 54.98986 | -14.87980 | 38188 ft | 495 kts | 274° |
| 2026-04-24 06:17 | 54.99921 | -14.99860 | 38186 ft | 492 kts | 269° |
| 2026-04-24 06:18 | 55.00278 | -15.11757 | 38180 ft | 491 kts | 267° |
| 2026-04-24 06:18 | 55.00498 | -15.23583 | 38188 ft | 491 kts | 267° |
| 2026-04-24 06:19 | 55.00693 | -15.35496 | 38181 ft | 492 kts | 267° |
| 2026-04-24 06:19 | 55.00888 | -15.47420 | 38183 ft | 492 kts | 267° |
| 2026-04-24 06:20 | 55.01079 | -15.59341 | 38177 ft | 493 kts | 267° |
| 2026-04-24 06:20 | 55.01261 | -15.71278 | 38176 ft | 493 kts | 266° |
| 2026-04-24 06:21 | 55.01431 | -15.83233 | 38178 ft | 493 kts | 266° |
| 2026-04-24 06:21 | 55.01589 | -15.95181 | 38173 ft | 494 kts | 266° |
| 2026-04-24 06:22 | 55.01735 | -16.07167 | 38168 ft | 494 kts | 266° |
| 2026-04-24 06:22 | 55.01870 | -16.19149 | 38171 ft | 495 kts | 266° |
| 2026-04-24 06:23 | 55.01993 | -16.31164 | 38165 ft | 495 kts | 266° |
| 2026-04-24 06:23 | 55.02104 | -16.43171 | 38161 ft | 496 kts | 266° |
| 2026-04-24 06:24 | 55.02204 | -16.55196 | 38166 ft | 497 kts | 266° |
| 2026-04-24 06:24 | 55.02291 | -16.67243 | 38153 ft | 497 kts | 266° |
| 2026-04-24 06:25 | 55.02367 | -16.79239 | 38163 ft | 498 kts | 266° |
| 2026-04-24 06:25 | 55.02431 | -16.91319 | 38147 ft | 498 kts | 266° |
| 2026-04-24 06:26 | 55.02476 | -17.01370 | 38152 ft | 499 kts | 266° |
| 2026-04-24 06:26 | 55.02518 | -17.13483 | 38148 ft | 500 kts | 266° |
| 2026-04-24 06:27 | 55.02549 | -17.25594 | 38148 ft | 500 kts | 266° |
| 2026-04-24 06:27 | 55.02567 | -17.37733 | 38141 ft | 501 kts | 266° |
| 2026-04-24 06:28 | 55.02572 | -17.49879 | 38136 ft | 501 kts | 265° |
| 2026-04-24 06:28 | 55.02566 | -17.62016 | 38135 ft | 501 kts | 265° |
| 2026-04-24 06:29 | 55.02547 | -17.74173 | 38131 ft | 502 kts | 265° |
| 2026-04-24 06:29 | 55.02517 | -17.86361 | 38126 ft | 502 kts | 265° |
| 2026-04-24 06:30 | 55.02475 | -17.98467 | 38124 ft | 503 kts | 265° |
| 2026-04-24 06:30 | 55.02421 | -18.10655 | 38116 ft | 503 kts | 265° |
| 2026-04-24 06:31 | 55.02355 | -18.22865 | 38124 ft | 503 kts | 265° |
| 2026-04-24 06:31 | 55.02277 | -18.35062 | 38115 ft | 504 kts | 265° |
| 2026-04-24 06:32 | 55.02186 | -18.47291 | 38116 ft | 504 kts | 265° |
| 2026-04-24 06:32 | 55.02082 | -18.59500 | 38109 ft | 504 kts | 265° |
| 2026-04-24 06:33 | 55.01966 | -18.71737 | 38108 ft | 505 kts | 265° |
| 2026-04-24 06:33 | 55.01839 | -18.83887 | 38106 ft | 505 kts | 264° |
| 2026-04-24 06:34 | 55.01698 | -18.96135 | 38100 ft | 505 kts | 264° |
| 2026-04-24 06:34 | 55.01545 | -19.08382 | 38094 ft | 506 kts | 264° |
| 2026-04-24 06:35 | 55.01379 | -19.20667 | 38098 ft | 506 kts | 264° |
| 2026-04-24 06:35 | 55.01202 | -19.32934 | 38090 ft | 507 kts | 264° |
| 2026-04-24 06:36 | 55.01011 | -19.45229 | 38083 ft | 507 kts | 264° |
| 2026-04-24 06:36 | 55.00808 | -19.57526 | 38089 ft | 508 kts | 264° |
| 2026-04-24 06:37 | 55.00594 | -19.69751 | 38079 ft | 508 kts | 264° |
| 2026-04-24 06:37 | 55.00366 | -19.82056 | 38075 ft | 509 kts | 264° |
| 2026-04-24 06:38 | 55.00138 | -19.94381 | 38072 ft | 510 kts | 265° |
| 2026-04-24 06:38 | 55.00971 | -20.06718 | 38070 ft | 517 kts | 279° |
| 2026-04-24 06:39 | 55.02627 | -20.18931 | 38071 ft | 518 kts | 281° |
| 2026-04-24 06:39 | 55.04410 | -20.31116 | 38067 ft | 519 kts | 281° |
| 2026-04-24 06:40 | 55.06174 | -20.43349 | 38060 ft | 519 kts | 281° |
| 2026-04-24 06:40 | 55.07891 | -20.55567 | 38060 ft | 519 kts | 281° |
| 2026-04-24 06:41 | 55.09586 | -20.67817 | 38057 ft | 519 kts | 280° |
| 2026-04-24 06:41 | 55.11257 | -20.79999 | 38058 ft | 519 kts | 280° |
| 2026-04-24 06:42 | 55.12929 | -20.92272 | 38055 ft | 519 kts | 280° |
| 2026-04-24 06:42 | 55.14591 | -21.04572 | 38053 ft | 520 kts | 280° |
| 2026-04-24 06:43 | 55.16244 | -21.16898 | 38046 ft | 520 kts | 280° |
| 2026-04-24 06:43 | 55.17874 | -21.29157 | 38045 ft | 520 kts | 280° |
| 2026-04-24 06:44 | 55.19500 | -21.41493 | 38042 ft | 520 kts | 280° |
| 2026-04-24 06:44 | 55.21116 | -21.53852 | 38048 ft | 521 kts | 280° |
| 2026-04-24 06:45 | 55.22718 | -21.66222 | 38044 ft | 521 kts | 280° |
| 2026-04-24 06:45 | 55.24313 | -21.78632 | 38034 ft | 521 kts | 279° |
| 2026-04-24 06:46 | 55.25894 | -21.91045 | 38036 ft | 522 kts | 279° |
| 2026-04-24 06:46 | 55.27462 | -22.03468 | 38032 ft | 522 kts | 279° |
| 2026-04-24 06:47 | 55.29010 | -22.15837 | 38033 ft | 522 kts | 279° |
| 2026-04-24 06:47 | 55.30556 | -22.28306 | 38029 ft | 522 kts | 279° |
| 2026-04-24 06:48 | 55.32087 | -22.40765 | 38027 ft | 523 kts | 279° |
| 2026-04-24 06:48 | 55.33607 | -22.53247 | 38026 ft | 523 kts | 279° |
| 2026-04-24 06:49 | 55.35119 | -22.65771 | 38027 ft | 523 kts | 279° |
| 2026-04-24 06:49 | 55.36616 | -22.78293 | 38022 ft | 524 kts | 279° |
| 2026-04-24 06:50 | 55.38105 | -22.90863 | 38017 ft | 524 kts | 279° |
| 2026-04-24 06:50 | 55.39569 | -23.03335 | 38022 ft | 524 kts | 279° |
| 2026-04-24 06:51 | 55.41028 | -23.15895 | 38015 ft | 524 kts | 279° |
| 2026-04-24 06:51 | 55.42478 | -23.28494 | 38014 ft | 524 kts | 279° |
| 2026-04-24 06:52 | 55.43915 | -23.41092 | 38005 ft | 525 kts | 279° |
| 2026-04-24 06:52 | 55.45341 | -23.53728 | 38010 ft | 525 kts | 279° |
| 2026-04-24 06:53 | 55.46754 | -23.66366 | 38013 ft | 525 kts | 278° |
| 2026-04-24 06:53 | 55.48152 | -23.78996 | 37997 ft | 525 kts | 278° |
| 2026-04-24 06:54 | 55.49530 | -23.91573 | 37999 ft | 525 kts | 278° |
| 2026-04-24 06:54 | 55.50904 | -24.04245 | 37997 ft | 526 kts | 278° |
| 2026-04-24 06:55 | 55.52265 | -24.16920 | 37991 ft | 526 kts | 278° |
| 2026-04-24 06:55 | 55.53615 | -24.29624 | 37992 ft | 526 kts | 278° |
| 2026-04-24 06:56 | 55.54951 | -24.42336 | 37988 ft | 526 kts | 278° |
| 2026-04-24 06:56 | 55.56274 | -24.55049 | 37987 ft | 527 kts | 278° |
| 2026-04-24 06:57 | 55.57577 | -24.67702 | 37983 ft | 527 kts | 278° |
| 2026-04-24 06:57 | 55.58875 | -24.80449 | 37984 ft | 527 kts | 278° |
| 2026-04-24 06:58 | 55.60163 | -24.93237 | 37975 ft | 528 kts | 278° |
| 2026-04-24 06:58 | 55.61437 | -25.06028 | 37979 ft | 528 kts | 278° |
| 2026-04-24 06:59 | 55.62698 | -25.18830 | 37975 ft | 528 kts | 278° |
| 2026-04-24 06:59 | 55.63949 | -25.31670 | 37964 ft | 528 kts | 278° |
| 2026-04-24 07:00 | 55.65184 | -25.44497 | 37966 ft | 529 kts | 277° |
| 2026-04-24 07:00 | 55.66409 | -25.57358 | 37965 ft | 529 kts | 277° |
| 2026-04-24 07:01 | 55.67610 | -25.70120 | 37966 ft | 530 kts | 277° |
| 2026-04-24 07:01 | 55.68808 | -25.83006 | 37961 ft | 530 kts | 277° |
| 2026-04-24 07:02 | 55.69999 | -25.95964 | 37957 ft | 530 kts | 277° |
| 2026-04-24 07:02 | 55.71171 | -26.08872 | 37953 ft | 530 kts | 277° |
| 2026-04-24 07:03 | 55.72326 | -26.21754 | 37952 ft | 531 kts | 277° |
| 2026-04-24 07:03 | 55.73475 | -26.34723 | 37949 ft | 531 kts | 277° |
| 2026-04-24 07:04 | 55.74610 | -26.47697 | 37947 ft | 531 kts | 277° |
| 2026-04-24 07:04 | 55.75731 | -26.60673 | 37947 ft | 532 kts | 277° |
| 2026-04-24 07:05 | 55.76838 | -26.73664 | 37946 ft | 532 kts | 277° |
| 2026-04-24 07:05 | 55.77926 | -26.86581 | 37943 ft | 532 kts | 277° |
| 2026-04-24 07:06 | 55.79008 | -26.99603 | 37939 ft | 533 kts | 276° |
| 2026-04-24 07:06 | 55.80078 | -27.12655 | 37942 ft | 533 kts | 276° |
| 2026-04-24 07:07 | 55.81133 | -27.25693 | 37936 ft | 533 kts | 276° |
| 2026-04-24 07:07 | 55.82693 | -27.45324 | 37934 ft | 534 kts | 276° |
| 2026-04-24 07:08 | 55.83713 | -27.58398 | 37933 ft | 534 kts | 276° |
| 2026-04-24 07:08 | 55.84718 | -27.71449 | 37930 ft | 534 kts | 276° |
| 2026-04-24 07:09 | 55.85714 | -27.84575 | 37928 ft | 535 kts | 276° |
| 2026-04-24 07:09 | 55.86697 | -27.97710 | 37927 ft | 535 kts | 276° |
| 2026-04-24 07:10 | 55.87665 | -28.10850 | 37926 ft | 535 kts | 276° |
| 2026-04-24 07:10 | 55.88619 | -28.23982 | 37925 ft | 535 kts | 275° |
| 2026-04-24 07:11 | 55.89561 | -28.37160 | 37925 ft | 535 kts | 275° |
| 2026-04-24 07:11 | 55.90488 | -28.50324 | 37921 ft | 535 kts | 275° |
| 2026-04-24 07:12 | 55.91400 | -28.63485 | 37923 ft | 535 kts | 275° |
| 2026-04-24 07:12 | 55.92294 | -28.76592 | 37915 ft | 536 kts | 275° |
| 2026-04-24 07:13 | 55.93181 | -28.89804 | 37914 ft | 536 kts | 275° |
| 2026-04-24 07:13 | 55.94053 | -29.03011 | 37914 ft | 536 kts | 275° |
| 2026-04-24 07:14 | 55.94767 | -29.13990 | 37912 ft | 536 kts | 275° |
| 2026-04-24 07:14 | 55.95612 | -29.27199 | 37915 ft | 536 kts | 275° |
| 2026-04-24 07:15 | 55.96442 | -29.40402 | 37913 ft | 536 kts | 275° |
| 2026-04-24 07:15 | 55.97259 | -29.53622 | 37909 ft | 535 kts | 275° |
| 2026-04-24 07:16 | 55.98063 | -29.66857 | 37913 ft | 535 kts | 274° |
| 2026-04-24 07:16 | 55.98851 | -29.80080 | 37911 ft | 535 kts | 274° |
| 2026-04-24 07:17 | 55.99625 | -29.93304 | 37913 ft | 535 kts | 274° |
| 2026-04-24 07:17 | 56.00357 | -30.06458 | 37912 ft | 535 kts | 273° |
| 2026-04-24 07:18 | 56.00893 | -30.19723 | 37903 ft | 534 kts | 272° |
| 2026-04-24 07:18 | 56.01341 | -30.32961 | 37917 ft | 534 kts | 272° |
| 2026-04-24 07:19 | 56.01800 | -30.46215 | 37905 ft | 534 kts | 272° |
| 2026-04-24 07:19 | 56.02273 | -30.59459 | 37906 ft | 534 kts | 272° |
| 2026-04-24 07:20 | 56.02741 | -30.72727 | 37903 ft | 533 kts | 272° |
| 2026-04-24 07:20 | 56.03195 | -30.85978 | 37896 ft | 533 kts | 272° |
| 2026-04-24 07:21 | 56.03630 | -30.99117 | 37898 ft | 533 kts | 272° |
| 2026-04-24 07:21 | 56.04055 | -31.12433 | 37893 ft | 533 kts | 272° |
| 2026-04-24 07:22 | 56.04460 | -31.25572 | 37893 ft | 532 kts | 271° |
| 2026-04-24 07:22 | 56.04853 | -31.38786 | 37899 ft | 532 kts | 271° |
| 2026-04-24 07:23 | 56.05233 | -31.52016 | 37897 ft | 532 kts | 271° |
| 2026-04-24 07:23 | 56.05598 | -31.65235 | 37896 ft | 532 kts | 271° |
| 2026-04-24 07:24 | 56.05949 | -31.78444 | 37906 ft | 531 kts | 271° |
| 2026-04-24 07:24 | 56.06286 | -31.91667 | 37890 ft | 531 kts | 271° |
| 2026-04-24 07:25 | 56.06609 | -32.04878 | 37902 ft | 531 kts | 271° |
| 2026-04-24 07:25 | 56.06917 | -32.18091 | 37890 ft | 531 kts | 271° |
| 2026-04-24 07:26 | 56.07210 | -32.31229 | 37889 ft | 531 kts | 271° |
| 2026-04-24 07:26 | 56.07490 | -32.44431 | 37896 ft | 531 kts | 271° |
| 2026-04-24 07:27 | 56.07756 | -32.57658 | 37891 ft | 530 kts | 271° |
| 2026-04-24 07:27 | 56.08008 | -32.70853 | 37900 ft | 530 kts | 271° |
| 2026-04-24 07:28 | 56.08245 | -32.84041 | 37905 ft | 530 kts | 271° |
| 2026-04-24 07:28 | 56.08467 | -32.97165 | 37904 ft | 530 kts | 271° |
| 2026-04-24 07:29 | 56.08676 | -33.10363 | 37890 ft | 530 kts | 271° |
| 2026-04-24 07:29 | 56.08872 | -33.23560 | 37894 ft | 530 kts | 270° |
| 2026-04-24 07:30 | 56.09053 | -33.36743 | 37892 ft | 529 kts | 270° |
| 2026-04-24 07:30 | 56.09220 | -33.49945 | 37892 ft | 529 kts | 270° |
| 2026-04-24 07:31 | 56.09372 | -33.63049 | 37900 ft | 529 kts | 270° |
| 2026-04-24 07:31 | 56.09511 | -33.76242 | 37900 ft | 529 kts | 270° |
| 2026-04-24 07:32 | 56.09635 | -33.89422 | 37901 ft | 529 kts | 270° |
| 2026-04-24 07:32 | 56.09746 | -34.02595 | 37893 ft | 529 kts | 270° |
| 2026-04-24 07:33 | 56.09843 | -34.15797 | 37889 ft | 529 kts | 270° |
| 2026-04-24 07:33 | 56.09926 | -34.28967 | 37890 ft | 529 kts | 270° |
| 2026-04-24 07:34 | 56.09994 | -34.42144 | 37899 ft | 529 kts | 270° |
| 2026-04-24 07:34 | 56.10049 | -34.55318 | 37904 ft | 528 kts | 270° |
| 2026-04-24 07:35 | 56.10089 | -34.68481 | 37900 ft | 528 kts | 270° |
| 2026-04-24 07:35 | 56.10115 | -34.81545 | 37894 ft | 528 kts | 270° |
| 2026-04-24 07:36 | 56.10128 | -34.94683 | 37896 ft | 527 kts | 269° |
| 2026-04-24 07:36 | 56.10127 | -35.07817 | 37898 ft | 527 kts | 269° |
| 2026-04-24 07:37 | 56.10111 | -35.20931 | 37904 ft | 526 kts | 269° |
| 2026-04-24 07:37 | 56.10082 | -35.34055 | 37893 ft | 526 kts | 269° |
| 2026-04-24 07:38 | 56.10039 | -35.47158 | 37903 ft | 525 kts | 269° |
| 2026-04-24 07:38 | 56.09982 | -35.60149 | 37897 ft | 525 kts | 269° |
| 2026-04-24 07:39 | 56.09912 | -35.73232 | 37901 ft | 524 kts | 269° |
| 2026-04-24 07:39 | 56.09828 | -35.86293 | 37891 ft | 524 kts | 269° |
| 2026-04-24 07:40 | 56.09730 | -35.99285 | 37898 ft | 523 kts | 269° |
| 2026-04-24 07:40 | 56.09619 | -36.12333 | 37907 ft | 523 kts | 269° |
| 2026-04-24 07:41 | 56.09494 | -36.25353 | 37897 ft | 523 kts | 269° |
| 2026-04-24 07:41 | 56.09355 | -36.38367 | 37896 ft | 523 kts | 269° |
| 2026-04-24 07:42 | 56.09203 | -36.51382 | 37900 ft | 523 kts | 268° |
| 2026-04-24 07:42 | 56.09036 | -36.64402 | 37909 ft | 522 kts | 268° |
| 2026-04-24 07:43 | 56.08857 | -36.77410 | 37899 ft | 522 kts | 268° |
| 2026-04-24 07:43 | 56.08663 | -36.90400 | 37896 ft | 522 kts | 268° |
| 2026-04-24 07:44 | 56.08457 | -37.03368 | 37908 ft | 521 kts | 268° |
| 2026-04-24 07:44 | 56.08238 | -37.16260 | 37905 ft | 521 kts | 268° |
| 2026-04-24 07:45 | 56.08004 | -37.29229 | 37909 ft | 521 kts | 268° |
| 2026-04-24 07:45 | 56.07757 | -37.42186 | 37910 ft | 520 kts | 268° |
| 2026-04-24 07:46 | 56.07497 | -37.55133 | 37911 ft | 520 kts | 268° |
| 2026-04-24 07:46 | 56.07223 | -37.68053 | 37903 ft | 519 kts | 268° |
| 2026-04-24 07:47 | 56.06936 | -37.80964 | 37904 ft | 519 kts | 268° |
| 2026-04-24 07:47 | 56.06637 | -37.93857 | 37910 ft | 518 kts | 267° |
| 2026-04-24 07:48 | 56.06323 | -38.06752 | 37900 ft | 518 kts | 267° |
| 2026-04-24 07:48 | 56.05999 | -38.19566 | 37901 ft | 518 kts | 267° |
| 2026-04-24 07:49 | 56.05659 | -38.32442 | 37909 ft | 518 kts | 267° |
| 2026-04-24 07:49 | 56.05306 | -38.45310 | 37907 ft | 518 kts | 267° |
| 2026-04-24 07:50 | 56.04939 | -38.58194 | 37916 ft | 518 kts | 267° |
| 2026-04-24 07:50 | 56.04559 | -38.71058 | 37907 ft | 518 kts | 267° |
| 2026-04-24 07:51 | 56.04165 | -38.83940 | 37918 ft | 518 kts | 267° |
| 2026-04-24 07:51 | 56.03758 | -38.96810 | 37924 ft | 518 kts | 266° |
| 2026-04-24 07:52 | 56.03341 | -39.09573 | 37911 ft | 518 kts | 266° |
| 2026-04-24 07:52 | 56.02908 | -39.22427 | 37913 ft | 517 kts | 266° |
| 2026-04-24 07:53 | 56.02461 | -39.35265 | 37917 ft | 517 kts | 266° |
| 2026-04-24 07:53 | 56.02003 | -39.48079 | 37918 ft | 517 kts | 266° |
| 2026-04-24 07:54 | 56.01530 | -39.60904 | 37917 ft | 517 kts | 266° |
| 2026-04-24 07:54 | 56.01045 | -39.73720 | 37924 ft | 517 kts | 266° |
| 2026-04-24 07:55 | 56.00546 | -39.86547 | 37934 ft | 516 kts | 266° |
| 2026-04-24 07:55 | 55.99908 | -39.99307 | 37927 ft | 516 kts | 260° |
| 2026-04-24 07:56 | 55.98278 | -40.11792 | 37931 ft | 516 kts | 254° |
| 2026-04-24 07:56 | 55.96376 | -40.24074 | 37936 ft | 516 kts | 253° |
| 2026-04-24 07:57 | 55.94430 | -40.36395 | 37940 ft | 516 kts | 253° |
| 2026-04-24 07:57 | 55.92516 | -40.48750 | 37931 ft | 515 kts | 254° |
| 2026-04-24 07:58 | 55.90593 | -40.61079 | 37926 ft | 515 kts | 253° |
| 2026-04-24 07:58 | 55.88679 | -40.73290 | 37932 ft | 515 kts | 253° |
| 2026-04-24 07:59 | 55.86730 | -40.85594 | 37928 ft | 515 kts | 253° |
| 2026-04-24 07:59 | 55.84768 | -40.97868 | 37931 ft | 515 kts | 253° |
| 2026-04-24 08:00 | 55.82796 | -41.10145 | 37943 ft | 515 kts | 253° |
| 2026-04-24 08:00 | 55.80821 | -41.22381 | 37944 ft | 515 kts | 253° |
| 2026-04-24 08:01 | 55.79169 | -41.32559 | 37944 ft | 515 kts | 253° |
| 2026-04-24 08:01 | 55.76831 | -41.46784 | 37948 ft | 515 kts | 252° |
| 2026-04-24 08:02 | 55.75151 | -41.56927 | 37944 ft | 514 kts | 252° |
| 2026-04-24 08:02 | 55.73127 | -41.69115 | 37950 ft | 514 kts | 252° |
| 2026-04-24 08:03 | 55.71102 | -41.81286 | 37945 ft | 514 kts | 252° |
| 2026-04-24 08:03 | 55.69067 | -41.93432 | 37945 ft | 514 kts | 252° |
| 2026-04-24 08:04 | 55.67010 | -42.05564 | 37947 ft | 514 kts | 252° |
| 2026-04-24 08:04 | 55.64940 | -42.17693 | 37951 ft | 514 kts | 252° |
| 2026-04-24 08:05 | 55.62857 | -42.29803 | 37951 ft | 514 kts | 252° |
| 2026-04-24 08:05 | 55.60777 | -42.41826 | 37952 ft | 514 kts | 252° |
| 2026-04-24 08:06 | 55.58673 | -42.53914 | 37955 ft | 514 kts | 252° |
| 2026-04-24 08:06 | 55.56566 | -42.65990 | 37957 ft | 514 kts | 251° |
| 2026-04-24 08:07 | 55.54434 | -42.78043 | 37958 ft | 514 kts | 251° |
| 2026-04-24 08:07 | 55.52283 | -42.90107 | 37957 ft | 514 kts | 251° |
| 2026-04-24 08:08 | 55.50136 | -43.02063 | 37957 ft | 514 kts | 251° |
| 2026-04-24 08:09 | 55.46893 | -43.20067 | 37962 ft | 513 kts | 251° |
| 2026-04-24 08:09 | 55.44724 | -43.32065 | 37956 ft | 513 kts | 251° |
| 2026-04-24 08:10 | 55.42538 | -43.44028 | 37961 ft | 513 kts | 251° |
| 2026-04-24 08:10 | 55.40342 | -43.55988 | 37959 ft | 513 kts | 251° |
| 2026-04-24 08:11 | 55.38129 | -43.67903 | 37965 ft | 513 kts | 250° |
| 2026-04-24 08:11 | 55.35907 | -43.79799 | 37965 ft | 512 kts | 250° |
| 2026-04-24 08:12 | 55.33677 | -43.91689 | 37965 ft | 512 kts | 250° |
| 2026-04-24 08:12 | 55.31436 | -44.03566 | 37969 ft | 512 kts | 250° |
| 2026-04-24 08:13 | 55.29200 | -44.15347 | 37965 ft | 512 kts | 250° |
| 2026-04-24 08:13 | 55.26933 | -44.27183 | 37971 ft | 511 kts | 250° |
| 2026-04-24 08:14 | 55.24648 | -44.39010 | 37968 ft | 511 kts | 250° |
| 2026-04-24 08:14 | 55.22367 | -44.50823 | 37971 ft | 511 kts | 250° |
| 2026-04-24 08:15 | 55.20088 | -44.62530 | 37971 ft | 511 kts | 250° |
| 2026-04-24 08:15 | 55.17788 | -44.74313 | 37969 ft | 511 kts | 250° |
| 2026-04-24 08:16 | 55.15485 | -44.86107 | 37968 ft | 511 kts | 249° |
| 2026-04-24 08:16 | 55.13143 | -44.97852 | 37969 ft | 511 kts | 249° |
| 2026-04-24 08:17 | 55.10812 | -45.09506 | 37974 ft | 511 kts | 249° |
| 2026-04-24 08:17 | 55.08465 | -45.21189 | 37974 ft | 510 kts | 249° |
| 2026-04-24 08:18 | 55.06103 | -45.32884 | 37974 ft | 510 kts | 249° |
| 2026-04-24 08:18 | 55.03732 | -45.44523 | 37976 ft | 509 kts | 249° |
| 2026-04-24 08:19 | 55.01357 | -45.56174 | 37977 ft | 509 kts | 249° |
| 2026-04-24 08:19 | 54.98986 | -45.67810 | 37974 ft | 509 kts | 249° |
| 2026-04-24 08:20 | 54.96586 | -45.79414 | 37974 ft | 509 kts | 248° |
| 2026-04-24 08:20 | 54.94173 | -45.90990 | 37976 ft | 508 kts | 249° |
| 2026-04-24 08:21 | 54.91768 | -46.02535 | 37973 ft | 508 kts | 248° |
| 2026-04-24 08:21 | 54.89343 | -46.13982 | 37975 ft | 508 kts | 248° |
| 2026-04-24 08:22 | 54.86900 | -46.25509 | 37980 ft | 508 kts | 248° |
| 2026-04-24 08:22 | 54.84452 | -46.36996 | 37981 ft | 508 kts | 248° |
| 2026-04-24 08:23 | 54.81995 | -46.48484 | 37970 ft | 507 kts | 248° |
| 2026-04-24 08:23 | 54.79538 | -46.59955 | 37977 ft | 507 kts | 248° |
| 2026-04-24 08:24 | 54.77062 | -46.71400 | 37972 ft | 507 kts | 248° |
| 2026-04-24 08:24 | 54.74582 | -46.82830 | 37988 ft | 507 kts | 247° |
| 2026-04-24 08:25 | 54.72082 | -46.94252 | 37991 ft | 507 kts | 247° |
| 2026-04-24 08:25 | 54.69592 | -47.05601 | 37977 ft | 507 kts | 248° |
| 2026-04-24 08:26 | 54.67079 | -47.17002 | 37977 ft | 507 kts | 247° |
| 2026-04-24 08:26 | 54.64541 | -47.28370 | 37978 ft | 507 kts | 247° |
| 2026-04-24 08:27 | 54.62010 | -47.39749 | 37981 ft | 507 kts | 247° |
| 2026-04-24 08:27 | 54.59468 | -47.51092 | 37981 ft | 507 kts | 247° |
| 2026-04-24 08:28 | 54.56893 | -47.62415 | 37980 ft | 507 kts | 247° |
| 2026-04-24 08:28 | 54.54300 | -47.73724 | 37977 ft | 507 kts | 246° |
| 2026-04-24 08:29 | 54.51720 | -47.85030 | 37980 ft | 507 kts | 246° |
| 2026-04-24 08:29 | 54.49157 | -47.96256 | 37984 ft | 506 kts | 247° |
| 2026-04-24 08:30 | 54.46569 | -48.07533 | 37980 ft | 506 kts | 246° |
| 2026-04-24 08:30 | 54.43954 | -48.18790 | 37976 ft | 506 kts | 246° |
| 2026-04-24 08:31 | 54.41323 | -48.29987 | 37979 ft | 505 kts | 246° |
| 2026-04-24 08:31 | 54.38714 | -48.41100 | 37977 ft | 505 kts | 246° |
| 2026-04-24 08:32 | 54.36077 | -48.52268 | 37981 ft | 505 kts | 245° |
| 2026-04-24 08:32 | 54.33437 | -48.63415 | 37979 ft | 504 kts | 245° |
| 2026-04-24 08:33 | 54.30791 | -48.74530 | 37976 ft | 504 kts | 245° |
| 2026-04-24 08:33 | 54.28137 | -48.85649 | 37978 ft | 504 kts | 245° |
| 2026-04-24 08:34 | 54.25487 | -48.96650 | 37980 ft | 504 kts | 245° |
| 2026-04-24 08:34 | 54.22811 | -49.07726 | 37979 ft | 504 kts | 245° |
| 2026-04-24 08:35 | 54.20116 | -49.18781 | 37973 ft | 503 kts | 245° |
| 2026-04-24 08:35 | 54.17426 | -49.29813 | 37980 ft | 504 kts | 245° |
| 2026-04-24 08:36 | 54.14719 | -49.40843 | 37979 ft | 504 kts | 245° |
| 2026-04-24 08:36 | 54.11990 | -49.51861 | 37977 ft | 504 kts | 245° |
| 2026-04-24 08:37 | 54.09278 | -49.62786 | 37971 ft | 504 kts | 245° |
| 2026-04-24 08:37 | 54.06552 | -49.73779 | 37976 ft | 504 kts | 245° |
| 2026-04-24 08:38 | 54.03806 | -49.84756 | 37972 ft | 504 kts | 245° |
| 2026-04-24 08:38 | 54.01052 | -49.95698 | 37972 ft | 503 kts | 245° |
| 2026-04-24 08:39 | 53.98320 | -50.06659 | 37971 ft | 504 kts | 245° |
| 2026-04-24 08:39 | 53.95653 | -50.17687 | 37973 ft | 504 kts | 245° |
| 2026-04-24 08:40 | 53.93002 | -50.28693 | 37968 ft | 504 kts | 246° |
| 2026-04-24 08:40 | 53.90346 | -50.39626 | 37970 ft | 504 kts | 245° |
| 2026-04-24 08:41 | 53.87647 | -50.50601 | 37972 ft | 504 kts | 245° |
| 2026-04-24 08:41 | 53.84942 | -50.61563 | 37968 ft | 504 kts | 245° |
| 2026-04-24 08:42 | 53.82230 | -50.72521 | 37970 ft | 504 kts | 245° |
| 2026-04-24 08:42 | 53.79515 | -50.83473 | 37967 ft | 504 kts | 245° |
| 2026-04-24 08:43 | 53.76784 | -50.94334 | 37968 ft | 504 kts | 244° |
| 2026-04-24 08:43 | 53.74026 | -51.05247 | 37969 ft | 505 kts | 244° |
| 2026-04-24 08:44 | 53.71266 | -51.16147 | 37964 ft | 505 kts | 245° |
| 2026-04-24 08:44 | 53.68517 | -51.27061 | 37963 ft | 505 kts | 244° |
| 2026-04-24 08:45 | 53.65746 | -51.37894 | 37965 ft | 505 kts | 244° |
| 2026-04-24 08:45 | 53.62971 | -51.48771 | 37962 ft | 505 kts | 244° |
| 2026-04-24 08:46 | 53.60167 | -51.59628 | 37961 ft | 505 kts | 244° |
| 2026-04-24 08:46 | 53.57356 | -51.70467 | 37956 ft | 505 kts | 244° |
| 2026-04-24 08:47 | 53.54533 | -51.81299 | 37957 ft | 505 kts | 244° |
| 2026-04-24 08:47 | 53.51715 | -51.92154 | 37957 ft | 505 kts | 244° |
| 2026-04-24 08:48 | 53.48893 | -52.02882 | 37956 ft | 505 kts | 243° |
| 2026-04-24 08:48 | 53.46032 | -52.13685 | 37959 ft | 505 kts | 244° |
| 2026-04-24 08:49 | 53.43185 | -52.24464 | 37962 ft | 505 kts | 244° |
| 2026-04-24 08:49 | 53.40325 | -52.35227 | 37953 ft | 505 kts | 244° |
| 2026-04-24 08:50 | 53.37468 | -52.45912 | 37953 ft | 505 kts | 244° |
| 2026-04-24 08:50 | 53.34579 | -52.56647 | 37950 ft | 505 kts | 244° |
| 2026-04-24 08:51 | 53.32172 | -52.65547 | 37955 ft | 505 kts | 244° |
| 2026-04-24 08:51 | 53.29263 | -52.76262 | 37963 ft | 505 kts | 243° |
| 2026-04-24 08:52 | 53.26349 | -52.86945 | 37953 ft | 505 kts | 243° |
| 2026-04-24 08:52 | 53.23423 | -52.97624 | 37953 ft | 505 kts | 243° |
| 2026-04-24 08:53 | 53.20492 | -53.08280 | 37951 ft | 505 kts | 243° |
| 2026-04-24 08:53 | 53.17549 | -53.18922 | 37954 ft | 505 kts | 243° |
| 2026-04-24 08:54 | 53.14595 | -53.29556 | 37950 ft | 505 kts | 243° |
| 2026-04-24 08:54 | 53.11633 | -53.40171 | 37955 ft | 505 kts | 243° |
| 2026-04-24 08:55 | 53.08677 | -53.50714 | 37947 ft | 506 kts | 243° |
| 2026-04-24 08:55 | 53.05689 | -53.61326 | 37950 ft | 506 kts | 243° |
| 2026-04-24 08:56 | 53.02693 | -53.71921 | 37952 ft | 506 kts | 243° |
| 2026-04-24 08:56 | 52.99692 | -53.82480 | 37952 ft | 506 kts | 243° |
| 2026-04-24 08:57 | 52.96679 | -53.93038 | 37954 ft | 506 kts | 243° |
| 2026-04-24 08:57 | 52.93651 | -54.03598 | 37938 ft | 507 kts | 243° |
| 2026-04-24 08:58 | 52.90614 | -54.14143 | 37937 ft | 507 kts | 243° |
| 2026-04-24 08:58 | 52.87569 | -54.24669 | 37942 ft | 507 kts | 242° |
| 2026-04-24 08:59 | 52.84528 | -54.35137 | 37948 ft | 508 kts | 242° |
| 2026-04-24 08:59 | 52.81456 | -54.45663 | 37946 ft | 508 kts | 242° |
| 2026-04-24 09:00 | 52.78373 | -54.56179 | 37949 ft | 508 kts | 242° |
| 2026-04-24 09:00 | 52.75277 | -54.66692 | 37945 ft | 508 kts | 242° |
| 2026-04-24 09:01 | 52.72176 | -54.77178 | 37947 ft | 509 kts | 242° |
| 2026-04-24 09:01 | 52.69061 | -54.87663 | 37948 ft | 509 kts | 242° |
| 2026-04-24 09:02 | 52.65952 | -54.98082 | 37947 ft | 509 kts | 242° |
| 2026-04-24 09:02 | 52.62820 | -55.08533 | 37947 ft | 509 kts | 242° |
| 2026-04-24 09:03 | 52.59670 | -55.18999 | 37945 ft | 510 kts | 242° |
| 2026-04-24 09:03 | 52.56513 | -55.29442 | 37942 ft | 510 kts | 242° |
| 2026-04-24 09:04 | 52.53345 | -55.39876 | 37942 ft | 510 kts | 242° |
| 2026-04-24 09:04 | 52.50167 | -55.50298 | 37941 ft | 511 kts | 242° |
| 2026-04-24 09:05 | 52.46997 | -55.60649 | 37940 ft | 511 kts | 242° |
| 2026-04-24 09:05 | 52.43794 | -55.71063 | 37935 ft | 511 kts | 242° |
| 2026-04-24 09:06 | 52.40583 | -55.81460 | 37935 ft | 511 kts | 241° |
| 2026-04-24 09:06 | 52.37550 | -55.92011 | 37935 ft | 513 kts | 245° |
| 2026-04-24 09:07 | 52.34894 | -56.02846 | 37937 ft | 513 kts | 247° |
| 2026-04-24 09:07 | 52.30939 | -56.19112 | 37935 ft | 513 kts | 246° |
| 2026-04-24 09:08 | 52.28231 | -56.29838 | 37935 ft | 513 kts | 246° |
| 2026-04-24 09:08 | 52.25471 | -56.40593 | 37935 ft | 513 kts | 246° |
| 2026-04-24 09:09 | 52.22696 | -56.51336 | 37931 ft | 514 kts | 246° |
| 2026-04-24 09:09 | 52.19910 | -56.62082 | 37928 ft | 514 kts | 246° |
| 2026-04-24 09:10 | 52.17115 | -56.72819 | 37929 ft | 514 kts | 246° |
| 2026-04-24 09:10 | 52.14309 | -56.83550 | 37926 ft | 515 kts | 245° |
| 2026-04-24 09:11 | 52.11514 | -56.94187 | 37924 ft | 515 kts | 245° |
| 2026-04-24 09:11 | 52.08681 | -57.04918 | 37922 ft | 515 kts | 245° |
| 2026-04-24 09:12 | 52.05846 | -57.15609 | 37923 ft | 515 kts | 245° |
| 2026-04-24 09:12 | 52.02995 | -57.26306 | 37916 ft | 516 kts | 245° |
| 2026-04-24 09:13 | 52.00134 | -57.36991 | 37913 ft | 516 kts | 245° |
| 2026-04-24 09:13 | 51.97285 | -57.47587 | 37917 ft | 516 kts | 245° |
| 2026-04-24 09:14 | 51.94402 | -57.58255 | 37917 ft | 516 kts | 245° |
| 2026-04-24 09:14 | 51.91514 | -57.68892 | 37914 ft | 516 kts | 245° |
| 2026-04-24 09:15 | 51.88613 | -57.79531 | 37916 ft | 516 kts | 245° |
| 2026-04-24 09:15 | 51.85705 | -57.90145 | 37911 ft | 516 kts | 245° |
| 2026-04-24 09:16 | 51.82783 | -58.00762 | 37914 ft | 516 kts | 245° |
| 2026-04-24 09:16 | 51.79871 | -58.11297 | 37917 ft | 516 kts | 245° |
| 2026-04-24 09:17 | 51.76931 | -58.21881 | 37911 ft | 517 kts | 245° |
| 2026-04-24 09:17 | 51.73981 | -58.32454 | 37917 ft | 517 kts | 245° |
| 2026-04-24 09:18 | 51.71016 | -58.43034 | 37914 ft | 517 kts | 245° |
| 2026-04-24 09:18 | 51.68039 | -58.53609 | 37911 ft | 518 kts | 245° |
| 2026-04-24 09:19 | 51.65050 | -58.64180 | 37910 ft | 518 kts | 245° |
| 2026-04-24 09:19 | 51.62053 | -58.74732 | 37912 ft | 519 kts | 244° |
| 2026-04-24 09:20 | 51.59039 | -58.85295 | 37909 ft | 519 kts | 244° |
| 2026-04-24 09:20 | 51.56017 | -58.95838 | 37909 ft | 520 kts | 244° |
| 2026-04-24 09:21 | 51.52999 | -59.06320 | 37909 ft | 520 kts | 244° |
| 2026-04-24 09:21 | 51.49949 | -59.16868 | 37904 ft | 521 kts | 244° |
| 2026-04-24 09:22 | 51.46888 | -59.27406 | 37903 ft | 521 kts | 244° |
| 2026-04-24 09:22 | 51.43814 | -59.37945 | 37904 ft | 522 kts | 244° |
| 2026-04-24 09:23 | 51.40729 | -59.48473 | 37904 ft | 522 kts | 244° |
| 2026-04-24 09:23 | 51.37632 | -59.58997 | 37904 ft | 522 kts | 244° |
| 2026-04-24 09:24 | 51.34524 | -59.69510 | 37903 ft | 523 kts | 244° |
| 2026-04-24 09:24 | 51.31408 | -59.80006 | 37905 ft | 523 kts | 244° |
| 2026-04-24 09:25 | 51.28275 | -59.90513 | 37902 ft | 523 kts | 244° |
| 2026-04-24 09:25 | 51.25135 | -60.00994 | 37910 ft | 524 kts | 244° |
| 2026-04-24 09:26 | 51.21999 | -60.11420 | 37910 ft | 525 kts | 244° |
| 2026-04-24 09:26 | 51.18825 | -60.21926 | 37910 ft | 525 kts | 244° |
| 2026-04-24 09:27 | 51.15642 | -60.32417 | 37916 ft | 525 kts | 244° |
| 2026-04-24 09:27 | 51.12450 | -60.42891 | 37916 ft | 526 kts | 244° |
| 2026-04-24 09:28 | 51.09247 | -60.53356 | 37924 ft | 526 kts | 244° |
| 2026-04-24 09:28 | 51.06055 | -60.63743 | 37924 ft | 526 kts | 244° |
| 2026-04-24 09:29 | 51.02833 | -60.74181 | 37925 ft | 526 kts | 244° |
| 2026-04-24 09:29 | 50.99597 | -60.84620 | 37926 ft | 526 kts | 244° |
| 2026-04-24 09:30 | 50.96349 | -60.95051 | 37930 ft | 527 kts | 244° |
| 2026-04-24 09:30 | 50.93093 | -61.05463 | 37907 ft | 527 kts | 244° |
| 2026-04-24 09:31 | 50.89824 | -61.15874 | 37907 ft | 528 kts | 244° |
| 2026-04-24 09:31 | 50.86565 | -61.26212 | 37922 ft | 528 kts | 244° |
| 2026-04-24 09:32 | 50.83271 | -61.36612 | 37901 ft | 528 kts | 243° |
| 2026-04-24 09:32 | 50.79969 | -61.46997 | 37915 ft | 529 kts | 243° |
| 2026-04-24 09:33 | 50.76654 | -61.57377 | 37900 ft | 529 kts | 243° |
| 2026-04-24 09:33 | 50.73324 | -61.67765 | 37918 ft | 530 kts | 243° |
| 2026-04-24 09:34 | 50.69986 | -61.78129 | 37896 ft | 530 kts | 243° |
| 2026-04-24 09:34 | 50.66633 | -61.88498 | 37899 ft | 531 kts | 243° |
| 2026-04-24 09:35 | 50.63266 | -61.98867 | 37895 ft | 531 kts | 243° |
| 2026-04-24 09:35 | 50.59893 | -62.09213 | 37904 ft | 532 kts | 243° |
| 2026-04-24 09:36 | 50.56504 | -62.19563 | 37902 ft | 532 kts | 243° |
| 2026-04-24 09:36 | 50.53103 | -62.29905 | 37894 ft | 532 kts | 243° |
| 2026-04-24 09:37 | 50.49716 | -62.40166 | 37893 ft | 533 kts | 243° |
| 2026-04-24 09:37 | 50.46293 | -62.50492 | 37887 ft | 533 kts | 243° |
| 2026-04-24 09:38 | 50.42856 | -62.60818 | 37891 ft | 533 kts | 243° |
| 2026-04-24 09:38 | 50.39414 | -62.71114 | 37888 ft | 534 kts | 242° |
| 2026-04-24 09:39 | 50.35959 | -62.81409 | 37881 ft | 534 kts | 242° |
| 2026-04-24 09:39 | 50.33076 | -62.89968 | 37881 ft | 534 kts | 242° |
| 2026-04-24 09:40 | 50.29601 | -63.00246 | 37877 ft | 534 kts | 242° |
| 2026-04-24 09:40 | 50.26115 | -63.10512 | 37883 ft | 534 kts | 242° |
| 2026-04-24 09:41 | 50.22617 | -63.20774 | 37880 ft | 535 kts | 242° |
| 2026-04-24 09:41 | 50.19132 | -63.30958 | 37884 ft | 535 kts | 242° |
| 2026-04-24 09:42 | 50.15614 | -63.41196 | 37876 ft | 535 kts | 242° |
| 2026-04-24 09:42 | 50.12087 | -63.51416 | 37882 ft | 535 kts | 242° |
| 2026-04-24 09:43 | 50.08571 | -63.61568 | 37886 ft | 535 kts | 242° |
| 2026-04-24 09:43 | 50.05030 | -63.71750 | 37883 ft | 535 kts | 242° |
| 2026-04-24 09:44 | 50.01472 | -63.81940 | 37901 ft | 535 kts | 242° |
| 2026-04-24 09:44 | 49.97911 | -63.92097 | 37887 ft | 535 kts | 242° |
| 2026-04-24 09:45 | 49.94339 | -64.02245 | 37890 ft | 536 kts | 242° |
| 2026-04-24 09:45 | 49.90753 | -64.12396 | 37886 ft | 536 kts | 242° |
| 2026-04-24 09:46 | 49.87162 | -64.22516 | 37874 ft | 535 kts | 242° |
| 2026-04-24 09:46 | 49.83560 | -64.32629 | 37868 ft | 536 kts | 242° |
| 2026-04-24 09:47 | 49.79975 | -64.42658 | 37851 ft | 536 kts | 241° |
| 2026-04-24 09:47 | 49.76357 | -64.52736 | 37864 ft | 536 kts | 241° |
| 2026-04-24 09:48 | 49.72728 | -64.62808 | 37866 ft | 536 kts | 241° |
| 2026-04-24 09:48 | 49.69090 | -64.72862 | 37869 ft | 536 kts | 241° |
| 2026-04-24 09:49 | 49.65442 | -64.82907 | 37872 ft | 536 kts | 241° |
| 2026-04-24 09:49 | 49.61787 | -64.92934 | 37872 ft | 536 kts | 241° |
| 2026-04-24 09:50 | 49.58121 | -65.02949 | 37873 ft | 536 kts | 241° |
| 2026-04-24 09:50 | 49.54471 | -65.12886 | 37875 ft | 536 kts | 241° |
| 2026-04-24 09:51 | 49.50790 | -65.22865 | 37874 ft | 536 kts | 241° |
| 2026-04-24 09:51 | 49.47096 | -65.32843 | 37876 ft | 536 kts | 241° |
| 2026-04-24 09:52 | 49.43387 | -65.42824 | 37875 ft | 537 kts | 241° |
| 2026-04-24 09:52 | 49.39672 | -65.52781 | 37876 ft | 537 kts | 241° |
| 2026-04-24 09:53 | 49.35951 | -65.62717 | 37877 ft | 537 kts | 241° |
| 2026-04-24 09:53 | 49.32246 | -65.72573 | 37881 ft | 537 kts | 241° |
| 2026-04-24 09:54 | 49.28524 | -65.82437 | 37885 ft | 537 kts | 241° |
| 2026-04-24 09:54 | 49.24768 | -65.92355 | 37882 ft | 536 kts | 241° |
| 2026-04-24 09:55 | 49.21014 | -66.02228 | 37884 ft | 536 kts | 241° |
| 2026-04-24 09:55 | 49.17257 | -66.12074 | 37887 ft | 536 kts | 241° |
| 2026-04-24 09:56 | 49.13489 | -66.21911 | 37888 ft | 536 kts | 241° |
| 2026-04-24 09:56 | 49.09727 | -66.31695 | 37888 ft | 537 kts | 241° |
| 2026-04-24 09:57 | 49.05939 | -66.41511 | 37885 ft | 536 kts | 241° |
| 2026-04-24 09:57 | 49.02143 | -66.51312 | 37891 ft | 536 kts | 241° |
| 2026-04-24 09:58 | 48.98349 | -66.61069 | 37891 ft | 536 kts | 241° |
| 2026-04-24 09:58 | 48.94542 | -66.70828 | 37891 ft | 536 kts | 241° |
| 2026-04-24 09:59 | 48.90748 | -66.80517 | 37891 ft | 536 kts | 240° |
| 2026-04-24 09:59 | 48.86924 | -66.90243 | 37892 ft | 536 kts | 241° |
| 2026-04-24 10:00 | 48.83092 | -66.99954 | 37892 ft | 536 kts | 240° |
| 2026-04-24 10:00 | 48.79242 | -67.09657 | 37897 ft | 536 kts | 240° |
| 2026-04-24 10:01 | 48.75371 | -67.19349 | 37896 ft | 537 kts | 240° |
| 2026-04-24 10:01 | 48.71502 | -67.29029 | 37897 ft | 537 kts | 240° |
| 2026-04-24 10:02 | 48.67641 | -67.38698 | 37901 ft | 536 kts | 240° |
| 2026-04-24 10:02 | 48.63783 | -67.48343 | 37900 ft | 536 kts | 240° |
| 2026-04-24 10:03 | 48.59908 | -67.57971 | 37906 ft | 536 kts | 240° |
| 2026-04-24 10:03 | 48.56048 | -67.67511 | 37900 ft | 535 kts | 240° |
| 2026-04-24 10:04 | 48.52151 | -67.77103 | 37900 ft | 535 kts | 240° |
| 2026-04-24 10:04 | 48.48254 | -67.86663 | 37902 ft | 534 kts | 240° |
| 2026-04-24 10:05 | 48.44350 | -67.96206 | 37904 ft | 534 kts | 240° |
| 2026-04-24 10:05 | 48.40443 | -68.05726 | 37900 ft | 534 kts | 240° |
| 2026-04-24 10:06 | 48.34576 | -68.19954 | 37904 ft | 534 kts | 240° |
| 2026-04-24 10:07 | 48.30680 | -68.29362 | 37904 ft | 533 kts | 240° |
| 2026-04-24 10:07 | 48.26753 | -68.38813 | 37906 ft | 533 kts | 240° |
| 2026-04-24 10:08 | 48.22818 | -68.48248 | 37910 ft | 533 kts | 240° |
| 2026-04-24 10:08 | 48.18879 | -68.57658 | 37910 ft | 533 kts | 240° |
| 2026-04-24 10:09 | 48.14937 | -68.67045 | 37907 ft | 532 kts | 240° |
| 2026-04-24 10:09 | 48.10985 | -68.76423 | 37911 ft | 532 kts | 240° |
| 2026-04-24 10:10 | 48.07029 | -68.85776 | 37910 ft | 531 kts | 240° |
| 2026-04-24 10:10 | 48.03071 | -68.95105 | 37910 ft | 531 kts | 240° |
| 2026-04-24 10:11 | 47.99134 | -69.04350 | 37913 ft | 530 kts | 240° |
| 2026-04-24 10:11 | 47.95169 | -69.13632 | 37915 ft | 530 kts | 240° |
| 2026-04-24 10:12 | 47.91205 | -69.22876 | 37912 ft | 529 kts | 240° |
| 2026-04-24 10:12 | 47.87228 | -69.32121 | 37910 ft | 529 kts | 240° |
| 2026-04-24 10:13 | 47.83258 | -69.41319 | 37911 ft | 528 kts | 240° |
| 2026-04-24 10:13 | 47.79280 | -69.50504 | 37910 ft | 528 kts | 240° |
| 2026-04-24 10:14 | 47.75170 | -69.59572 | 37913 ft | 529 kts | 235° |
| 2026-04-24 10:14 | 47.70595 | -69.68141 | 37912 ft | 530 kts | 233° |
| 2026-04-24 10:15 | 47.65910 | -69.76588 | 37913 ft | 529 kts | 233° |
| 2026-04-24 10:15 | 47.61213 | -69.85005 | 37914 ft | 529 kts | 233° |
| 2026-04-24 10:16 | 47.56555 | -69.93358 | 37913 ft | 528 kts | 233° |
| 2026-04-24 10:16 | 47.51872 | -70.01749 | 37911 ft | 528 kts | 233° |
| 2026-04-24 10:17 | 47.47194 | -70.10112 | 37920 ft | 527 kts | 233° |
| 2026-04-24 10:17 | 47.42515 | -70.18455 | 37917 ft | 527 kts | 233° |
| 2026-04-24 10:18 | 47.37813 | -70.26773 | 37913 ft | 527 kts | 233° |
| 2026-04-24 10:18 | 47.33100 | -70.35059 | 37911 ft | 527 kts | 233° |
| 2026-04-24 10:19 | 47.28386 | -70.43325 | 37910 ft | 527 kts | 233° |
| 2026-04-24 10:19 | 47.23698 | -70.51531 | 37912 ft | 526 kts | 233° |
| 2026-04-24 10:20 | 47.18980 | -70.59767 | 37917 ft | 526 kts | 233° |
| 2026-04-24 10:20 | 47.14253 | -70.67993 | 37928 ft | 526 kts | 233° |
| 2026-04-24 10:21 | 47.09527 | -70.76192 | 37926 ft | 525 kts | 233° |
| 2026-04-24 10:21 | 47.04799 | -70.84369 | 37929 ft | 524 kts | 233° |
| 2026-04-24 10:22 | 47.00071 | -70.92500 | 37929 ft | 524 kts | 233° |
| 2026-04-24 10:22 | 46.95332 | -71.00604 | 37943 ft | 523 kts | 233° |
| 2026-04-24 10:23 | 46.90591 | -71.08688 | 37942 ft | 522 kts | 233° |
| 2026-04-24 10:23 | 46.85883 | -71.16699 | 37951 ft | 522 kts | 233° |
| 2026-04-24 10:23 | 46.83513 | -71.20723 | 37707 ft | 522 kts | 233° |
| 2026-04-24 10:24 | 46.81143 | -71.24728 | 37257 ft | 522 kts | 233° |
| 2026-04-24 10:24 | 46.78552 | -71.28496 | 36786 ft | 529 kts | 225° |
| 2026-04-24 10:24 | 46.75649 | -71.31810 | 36258 ft | 533 kts | 220° |
| 2026-04-24 10:24 | 46.72627 | -71.34986 | 35731 ft | 535 kts | 219° |
| 2026-04-24 10:25 | 46.69580 | -71.38126 | 35207 ft | 537 kts | 219° |
| 2026-04-24 10:25 | 46.66525 | -71.41267 | 34690 ft | 538 kts | 220° |
| 2026-04-24 10:25 | 46.63639 | -71.44707 | 34199 ft | 534 kts | 228° |
| 2026-04-24 10:25 | 46.60973 | -71.48466 | 33637 ft | 534 kts | 230° |
| 2026-04-24 10:26 | 46.58352 | -71.52287 | 33064 ft | 535 kts | 231° |
| 2026-04-24 10:26 | 46.55730 | -71.56122 | 32488 ft | 536 kts | 231° |
| 2026-04-24 10:26 | 46.53089 | -71.59967 | 31930 ft | 537 kts | 231° |
| 2026-04-24 10:26 | 46.50451 | -71.63794 | 31377 ft | 537 kts | 231° |
| 2026-04-24 10:27 | 46.47805 | -71.67619 | 30841 ft | 536 kts | 231° |
| 2026-04-24 10:27 | 46.46052 | -71.70146 | 30488 ft | 534 kts | 231° |
| 2026-04-24 10:27 | 46.43426 | -71.73926 | 29948 ft | 530 kts | 231° |
| 2026-04-24 10:27 | 46.40820 | -71.77673 | 29323 ft | 525 kts | 231° |
| 2026-04-24 10:28 | 46.38235 | -71.81386 | 28715 ft | 520 kts | 231° |
| 2026-04-24 10:28 | 46.35646 | -71.85009 | 28111 ft | 516 kts | 230° |
| 2026-04-24 10:28 | 46.33051 | -71.88569 | 27531 ft | 512 kts | 230° |
| 2026-04-24 10:28 | 46.30472 | -71.92098 | 26953 ft | 507 kts | 230° |
| 2026-04-24 10:29 | 46.27928 | -71.95586 | 26387 ft | 502 kts | 230° |
| 2026-04-24 10:29 | 46.25404 | -71.99048 | 25837 ft | 498 kts | 230° |
| 2026-04-24 10:29 | 46.22904 | -72.02476 | 25301 ft | 494 kts | 231° |
| 2026-04-24 10:29 | 46.20429 | -72.05875 | 24757 ft | 490 kts | 231° |
| 2026-04-24 10:30 | 46.17960 | -72.09256 | 24165 ft | 487 kts | 231° |
| 2026-04-24 10:30 | 46.15515 | -72.12596 | 23585 ft | 483 kts | 231° |
| 2026-04-24 10:30 | 46.13080 | -72.15919 | 22879 ft | 479 kts | 231° |
| 2026-04-24 10:30 | 46.10667 | -72.19207 | 22210 ft | 475 kts | 231° |
| 2026-04-24 10:31 | 46.08275 | -72.22466 | 21559 ft | 470 kts | 231° |
| 2026-04-24 10:31 | 46.05943 | -72.25639 | 20942 ft | 465 kts | 231° |
| 2026-04-24 10:31 | 46.03573 | -72.28860 | 20320 ft | 459 kts | 231° |
| 2026-04-24 10:31 | 46.01293 | -72.31956 | 19729 ft | 454 kts | 231° |
| 2026-04-24 10:32 | 45.98979 | -72.35094 | 19128 ft | 449 kts | 231° |
| 2026-04-24 10:32 | 45.96748 | -72.38119 | 18553 ft | 443 kts | 231° |
| 2026-04-24 10:32 | 45.94733 | -72.41370 | 17941 ft | 426 kts | 243° |
| 2026-04-24 10:32 | 45.93246 | -72.44961 | 17357 ft | 413 kts | 249° |
| 2026-04-24 10:33 | 45.91912 | -72.48572 | 16787 ft | 405 kts | 250° |
| 2026-04-24 10:33 | 45.90616 | -72.52127 | 16225 ft | 399 kts | 250° |
| 2026-04-24 10:33 | 45.89337 | -72.55618 | 15675 ft | 393 kts | 250° |
| 2026-04-24 10:33 | 45.88065 | -72.59065 | 15153 ft | 387 kts | 249° |
| 2026-04-24 10:34 | 45.86809 | -72.62451 | 14671 ft | 381 kts | 249° |
| 2026-04-24 10:34 | 45.85571 | -72.65775 | 14202 ft | 374 kts | 249° |
| 2026-04-24 10:34 | 45.84351 | -72.69041 | 13776 ft | 367 kts | 249° |
| 2026-04-24 10:34 | 45.83172 | -72.72175 | 13291 ft | 345 kts | 249° |
| 2026-04-24 10:35 | 45.82064 | -72.75093 | 12838 ft | 321 kts | 249° |
| 2026-04-24 10:35 | 45.81035 | -72.77809 | 12442 ft | 300 kts | 249° |
| 2026-04-24 10:35 | 45.80074 | -72.80366 | 12073 ft | 286 kts | 250° |
| 2026-04-24 10:35 | 45.79140 | -72.82855 | 11713 ft | 282 kts | 250° |
| 2026-04-24 10:36 | 45.78215 | -72.85344 | 11378 ft | 283 kts | 250° |
| 2026-04-24 10:36 | 45.77305 | -72.87792 | 11048 ft | 280 kts | 250° |
| 2026-04-24 10:36 | 45.76388 | -72.90242 | 10715 ft | 278 kts | 250° |
| 2026-04-24 10:36 | 45.75555 | -72.92456 | 10402 ft | 276 kts | 249° |
| 2026-04-24 10:37 | 45.74643 | -72.94876 | 10090 ft | 274 kts | 249° |
| 2026-04-24 10:37 | 45.73738 | -72.97271 | 9750 ft | 273 kts | 249° |
| 2026-04-24 10:37 | 45.72837 | -72.99653 | 9390 ft | 272 kts | 249° |
| 2026-04-24 10:37 | 45.72044 | -73.02078 | 9022 ft | 264 kts | 258° |
| 2026-04-24 10:38 | 45.71632 | -73.04597 | 8686 ft | 258 kts | 266° |
| 2026-04-24 10:38 | 45.71349 | -73.07130 | 8339 ft | 256 kts | 267° |
| 2026-04-24 10:38 | 45.71088 | -73.09640 | 7992 ft | 255 kts | 267° |
| 2026-04-24 10:38 | 45.70814 | -73.12146 | 7653 ft | 255 kts | 265° |
| 2026-04-24 10:39 | 45.70435 | -73.14627 | 7317 ft | 255 kts | 262° |
| 2026-04-24 10:39 | 45.70010 | -73.17087 | 6976 ft | 254 kts | 261° |
| 2026-04-24 10:39 | 45.69574 | -73.19525 | 6683 ft | 253 kts | 261° |
| 2026-04-24 10:39 | 45.69136 | -73.21954 | 6404 ft | 252 kts | 260° |
| 2026-04-24 10:40 | 45.68695 | -73.24382 | 6105 ft | 251 kts | 260° |
| 2026-04-24 10:40 | 45.68256 | -73.26790 | 5811 ft | 251 kts | 260° |
| 2026-04-24 10:40 | 45.67824 | -73.29156 | 5539 ft | 250 kts | 260° |
| 2026-04-24 10:40 | 45.67413 | -73.31411 | 5288 ft | 249 kts | 260° |
| 2026-04-24 10:41 | 45.66974 | -73.33810 | 5037 ft | 249 kts | 260° |
| 2026-04-24 10:41 | 45.66537 | -73.36200 | 4764 ft | 246 kts | 260° |
| 2026-04-24 10:41 | 45.66107 | -73.38542 | 4483 ft | 241 kts | 260° |
| 2026-04-24 10:41 | 45.65682 | -73.40847 | 4210 ft | 237 kts | 260° |
| 2026-04-24 10:42 | 45.65266 | -73.43108 | 3943 ft | 234 kts | 260° |
| 2026-04-24 10:42 | 45.64855 | -73.45343 | 3678 ft | 230 kts | 260° |
| 2026-04-24 10:42 | 45.64452 | -73.47531 | 3430 ft | 226 kts | 260° |
| 2026-04-24 10:42 | 45.64054 | -73.49681 | 3245 ft | 220 kts | 260° |
| 2026-04-24 10:43 | 45.63665 | -73.51779 | 3049 ft | 217 kts | 260° |
| 2026-04-24 10:43 | 45.63112 | -73.53800 | 2868 ft | 223 kts | 243° |
| 2026-04-24 10:43 | 45.62124 | -73.55523 | 2669 ft | 226 kts | 227° |
| 2026-04-24 10:43 | 45.60952 | -73.57014 | 2493 ft | 222 kts | 224° |
| 2026-04-24 10:44 | 45.59822 | -73.58453 | 2321 ft | 212 kts | 224° |
| 2026-04-24 10:44 | 45.58757 | -73.59844 | 2138 ft | 201 kts | 225° |
| 2026-04-24 10:44 | 45.57755 | -73.61168 | 1950 ft | 195 kts | 225° |
| 2026-04-24 10:44 | 45.56765 | -73.62485 | 1765 ft | 194 kts | 225° |
| 2026-04-24 10:45 | 45.55781 | -73.63790 | 1543 ft | 193 kts | 225° |
| 2026-04-24 10:45 | 45.54798 | -73.65093 | 1527 ft | 193 kts | 225° |
| 2026-04-24 10:45 | 45.53829 | -73.66370 | 1522 ft | 180 kts | 225° |
| 2026-04-24 10:45 | 45.52966 | -73.67500 | 1419 ft | 161 kts | 226° |
| 2026-04-24 10:46 | 45.52179 | -73.68535 | 1205 ft | 151 kts | 226° |
| 2026-04-24 10:46 | 45.51411 | -73.69546 | 988 ft | 147 kts | 225° |
| 2026-04-24 10:46 | 45.50675 | -73.70509 | 761 ft | 144 kts | 224° |
| 2026-04-24 10:46 | 45.49945 | -73.71446 | 593 ft | 139 kts | 225° |
| 2026-04-24 10:47 | 45.49240 | -73.72391 | 406 ft | 139 kts | 225° |
| 2026-04-24 10:47 | 45.48528 | -73.73317 | 231 ft | 138 kts | 224° |
| 2026-04-24 10:47 | 45.47838 | -73.74238 | 121 ft | 128 kts | 224° |
| 2026-04-24 10:47 | 45.47274 | -73.74976 | 121 ft | 94 kts | 223° |
| 2026-04-24 10:48 | 45.46855 | -73.75523 | 120 ft | 70 kts | 223° |
| 2026-04-24 10:48 | 45.46540 | -73.75935 | 119 ft | 52 kts | 222° |
| 2026-04-24 10:48 | 45.46377 | -73.76149 | 119 ft | 30 kts | 224° |
| 2026-04-24 10:48 | 45.46251 | -73.76218 | 120 ft | 7 kts | 165° |
| 2026-04-24 10:49 | 45.46192 | -73.76188 | 120 ft | 11 kts | 160° |
| 2026-04-24 10:49 | 45.46129 | -73.76147 | 119 ft | 4 kts | 148° |
| 2026-04-24 10:51 | 45.46096 | -73.76117 | 118 ft | 11 kts | 146° |
| 2026-04-24 10:51 | 45.46049 | -73.76015 | 121 ft | 14 kts | 95° |
| 2026-04-24 10:51 | 45.46050 | -73.75976 | 120 ft | 15 kts | 87° |
| 2026-04-24 10:51 | 45.46053 | -73.75888 | 119 ft | 8 kts | 88° |
| 2026-04-24 10:52 | 45.46055 | -73.75791 | 119 ft | 12 kts | 88° |
| 2026-04-24 10:52 | 45.46052 | -73.75667 | 118 ft | 11 kts | 115° |
| 2026-04-24 10:52 | 45.45995 | -73.75635 | 118 ft | 3 kts | 178° |
| 2026-04-24 10:52 | 45.45982 | -73.75634 | 117 ft | 2 kts | 178° |
| 2026-04-24 10:53 | 45.45977 | -73.75634 | 117 ft | 0 kts | 178° |